<?xml version="1.0" encoding="UTF-8" standalone="no" ?>
<gpx xmlns="http://www.topografix.com/GPX/1/1" xmlns:xsi="http://www.w3.org/2001/XMLSchema-instance" xsi:schemaLocation="http://www.topografix.com/GPX/1/1 http://www.topografix.com/GPX/1/1/gpx.xsd" version="1.1" creator="VisuGPX - https://www.visugpx.com">
  <metadata>
    <name>20 févr. 2021 09:38:48</name>
  </metadata>
  <trk>
    <name><![CDATA[20 févr. 2021 09:38:48]]></name>
    <trkseg>
      <trkpt lat="45.75243" lon="6.54273">
        <ele>1630.15</ele>
        <time>2021-02-20T08:38:48.000Z</time>
      </trkpt>
      <trkpt lat="45.75238" lon="6.54261">
        <ele>1635.25</ele>
        <time>2021-02-20T08:40:55.000Z</time>
      </trkpt>
      <trkpt lat="45.75233" lon="6.5425">
        <ele>1635</ele>
        <time>2021-02-20T08:41:19.000Z</time>
      </trkpt>
      <trkpt lat="45.75229" lon="6.54238">
        <ele>1635.31</ele>
        <time>2021-02-20T08:41:28.000Z</time>
      </trkpt>
      <trkpt lat="45.75224" lon="6.54226">
        <ele>1635.25</ele>
        <time>2021-02-20T08:41:43.000Z</time>
      </trkpt>
      <trkpt lat="45.75219" lon="6.54215">
        <ele>1635.64</ele>
        <time>2021-02-20T08:41:52.000Z</time>
      </trkpt>
      <trkpt lat="45.75212" lon="6.54205">
        <ele>1636.09</ele>
        <time>2021-02-20T08:42:02.000Z</time>
      </trkpt>
      <trkpt lat="45.75205" lon="6.54195">
        <ele>1636.97</ele>
        <time>2021-02-20T08:42:10.999Z</time>
      </trkpt>
      <trkpt lat="45.75199" lon="6.54184">
        <ele>1637.71</ele>
        <time>2021-02-20T08:42:21.999Z</time>
      </trkpt>
      <trkpt lat="45.75196" lon="6.54171">
        <ele>1638.7</ele>
        <time>2021-02-20T08:42:32.999Z</time>
      </trkpt>
      <trkpt lat="45.75191" lon="6.5416">
        <ele>1639.67</ele>
        <time>2021-02-20T08:42:45.999Z</time>
      </trkpt>
      <trkpt lat="45.75189" lon="6.54146">
        <ele>1639.27</ele>
        <time>2021-02-20T08:43:02.999Z</time>
      </trkpt>
      <trkpt lat="45.75188" lon="6.54133">
        <ele>1640.96</ele>
        <time>2021-02-20T08:43:15.999Z</time>
      </trkpt>
      <trkpt lat="45.75186" lon="6.54119">
        <ele>1641.65</ele>
        <time>2021-02-20T08:43:27.999Z</time>
      </trkpt>
      <trkpt lat="45.75185" lon="6.54106">
        <ele>1642.94</ele>
        <time>2021-02-20T08:43:42.999Z</time>
      </trkpt>
      <trkpt lat="45.75184" lon="6.54093">
        <ele>1643.27</ele>
        <time>2021-02-20T08:43:55.999Z</time>
      </trkpt>
      <trkpt lat="45.75184" lon="6.5408">
        <ele>1643.56</ele>
        <time>2021-02-20T08:44:07.999Z</time>
      </trkpt>
      <trkpt lat="45.75179" lon="6.54069">
        <ele>1644.53</ele>
        <time>2021-02-20T08:44:22.999Z</time>
      </trkpt>
      <trkpt lat="45.7517" lon="6.54068">
        <ele>1646.65</ele>
        <time>2021-02-20T08:44:41.999Z</time>
      </trkpt>
      <trkpt lat="45.75162" lon="6.54059">
        <ele>1648.96</ele>
        <time>2021-02-20T08:45:41.999Z</time>
      </trkpt>
      <trkpt lat="45.75155" lon="6.54048">
        <ele>1649.47</ele>
        <time>2021-02-20T08:45:50.999Z</time>
      </trkpt>
      <trkpt lat="45.75149" lon="6.54037">
        <ele>1650.58</ele>
        <time>2021-02-20T08:46:00.999Z</time>
      </trkpt>
      <trkpt lat="45.75144" lon="6.54026">
        <ele>1651.3</ele>
        <time>2021-02-20T08:46:09.999Z</time>
      </trkpt>
      <trkpt lat="45.75137" lon="6.54016">
        <ele>1651.14</ele>
        <time>2021-02-20T08:46:20.999Z</time>
      </trkpt>
      <trkpt lat="45.75132" lon="6.54005">
        <ele>1652.8</ele>
        <time>2021-02-20T08:46:31.999Z</time>
      </trkpt>
      <trkpt lat="45.75129" lon="6.53993">
        <ele>1655.72</ele>
        <time>2021-02-20T08:46:42.999Z</time>
      </trkpt>
      <trkpt lat="45.75134" lon="6.53981">
        <ele>1656.21</ele>
        <time>2021-02-20T08:46:54.999Z</time>
      </trkpt>
      <trkpt lat="45.75137" lon="6.53969">
        <ele>1656.43</ele>
        <time>2021-02-20T08:47:07.999Z</time>
      </trkpt>
      <trkpt lat="45.7514" lon="6.53956">
        <ele>1656.96</ele>
        <time>2021-02-20T08:47:20.999Z</time>
      </trkpt>
      <trkpt lat="45.75143" lon="6.53944">
        <ele>1657.32</ele>
        <time>2021-02-20T08:47:34.999Z</time>
      </trkpt>
      <trkpt lat="45.75143" lon="6.5393">
        <ele>1658.16</ele>
        <time>2021-02-20T08:47:45.999Z</time>
      </trkpt>
      <trkpt lat="45.75145" lon="6.53917">
        <ele>1658.74</ele>
        <time>2021-02-20T08:48:19.999Z</time>
      </trkpt>
      <trkpt lat="45.75143" lon="6.53903">
        <ele>1659.2</ele>
        <time>2021-02-20T08:48:34.999Z</time>
      </trkpt>
      <trkpt lat="45.75144" lon="6.5389">
        <ele>1659.55</ele>
        <time>2021-02-20T08:48:49.999Z</time>
      </trkpt>
      <trkpt lat="45.75148" lon="6.53878">
        <ele>1659.59</ele>
        <time>2021-02-20T08:49:03.999Z</time>
      </trkpt>
      <trkpt lat="45.75151" lon="6.53866">
        <ele>1660.15</ele>
        <time>2021-02-20T08:49:15.999Z</time>
      </trkpt>
      <trkpt lat="45.75154" lon="6.53853">
        <ele>1660.9</ele>
        <time>2021-02-20T08:49:27.999Z</time>
      </trkpt>
      <trkpt lat="45.75158" lon="6.53841">
        <ele>1661.3</ele>
        <time>2021-02-20T08:49:38.999Z</time>
      </trkpt>
      <trkpt lat="45.75164" lon="6.5383">
        <ele>1661.34</ele>
        <time>2021-02-20T08:49:49.999Z</time>
      </trkpt>
      <trkpt lat="45.75171" lon="6.53821">
        <ele>1661.36</ele>
        <time>2021-02-20T08:49:59.999Z</time>
      </trkpt>
      <trkpt lat="45.75177" lon="6.53812">
        <ele>1660.8</ele>
        <time>2021-02-20T08:50:09.999Z</time>
      </trkpt>
      <trkpt lat="45.7518" lon="6.53799">
        <ele>1661.73</ele>
        <time>2021-02-20T08:50:21.999Z</time>
      </trkpt>
      <trkpt lat="45.75178" lon="6.53784">
        <ele>1662.59</ele>
        <time>2021-02-20T08:50:33.999Z</time>
      </trkpt>
      <trkpt lat="45.75177" lon="6.53771">
        <ele>1663.24</ele>
        <time>2021-02-20T08:50:44.999Z</time>
      </trkpt>
      <trkpt lat="45.75176" lon="6.53758">
        <ele>1664.01</ele>
        <time>2021-02-20T08:50:56.999Z</time>
      </trkpt>
      <trkpt lat="45.75173" lon="6.53745">
        <ele>1663.48</ele>
        <time>2021-02-20T08:51:10.999Z</time>
      </trkpt>
      <trkpt lat="45.75165" lon="6.53738">
        <ele>1664.57</ele>
        <time>2021-02-20T08:51:24.999Z</time>
      </trkpt>
      <trkpt lat="45.75155" lon="6.53736">
        <ele>1665.76</ele>
        <time>2021-02-20T08:51:37.999Z</time>
      </trkpt>
      <trkpt lat="45.75146" lon="6.53737">
        <ele>1666.13</ele>
        <time>2021-02-20T08:51:48.999Z</time>
      </trkpt>
      <trkpt lat="45.75137" lon="6.53739">
        <ele>1667.37</ele>
        <time>2021-02-20T08:52:00.999Z</time>
      </trkpt>
      <trkpt lat="45.75127" lon="6.53743">
        <ele>1667.86</ele>
        <time>2021-02-20T08:52:13.999Z</time>
      </trkpt>
      <trkpt lat="45.75118" lon="6.53748">
        <ele>1668.59</ele>
        <time>2021-02-20T08:52:25.999Z</time>
      </trkpt>
      <trkpt lat="45.75109" lon="6.53753">
        <ele>1669.04</ele>
        <time>2021-02-20T08:52:35.999Z</time>
      </trkpt>
      <trkpt lat="45.75101" lon="6.53759">
        <ele>1670.04</ele>
        <time>2021-02-20T08:52:46.999Z</time>
      </trkpt>
      <trkpt lat="45.75092" lon="6.53764">
        <ele>1670.57</ele>
        <time>2021-02-20T08:52:57.999Z</time>
      </trkpt>
      <trkpt lat="45.75083" lon="6.53768">
        <ele>1670.61</ele>
        <time>2021-02-20T08:53:09.999Z</time>
      </trkpt>
      <trkpt lat="45.75073" lon="6.53769">
        <ele>1671.68</ele>
        <time>2021-02-20T08:53:22.999Z</time>
      </trkpt>
      <trkpt lat="45.75064" lon="6.53771">
        <ele>1672.45</ele>
        <time>2021-02-20T08:53:39.999Z</time>
      </trkpt>
      <trkpt lat="45.7506" lon="6.53759">
        <ele>1673.94</ele>
        <time>2021-02-20T08:54:13.000Z</time>
      </trkpt>
      <trkpt lat="45.7506" lon="6.53745">
        <ele>1673.69</ele>
        <time>2021-02-20T08:54:25.000Z</time>
      </trkpt>
      <trkpt lat="45.75057" lon="6.53732">
        <ele>1675.91</ele>
        <time>2021-02-20T08:54:43.000Z</time>
      </trkpt>
      <trkpt lat="45.75057" lon="6.53718">
        <ele>1677.62</ele>
        <time>2021-02-20T08:54:56.000Z</time>
      </trkpt>
      <trkpt lat="45.75047" lon="6.53715">
        <ele>1680.08</ele>
        <time>2021-02-20T09:00:58.000Z</time>
      </trkpt>
      <trkpt lat="45.75037" lon="6.53714">
        <ele>1679.79</ele>
        <time>2021-02-20T09:01:10.000Z</time>
      </trkpt>
      <trkpt lat="45.75029" lon="6.53709">
        <ele>1682.25</ele>
        <time>2021-02-20T09:01:24.000Z</time>
      </trkpt>
      <trkpt lat="45.7502" lon="6.53702">
        <ele>1683.13</ele>
        <time>2021-02-20T09:01:44.000Z</time>
      </trkpt>
      <trkpt lat="45.75016" lon="6.5369">
        <ele>1682.61</ele>
        <time>2021-02-20T09:01:57.000Z</time>
      </trkpt>
      <trkpt lat="45.75012" lon="6.53677">
        <ele>1685.66</ele>
        <time>2021-02-20T09:02:19.000Z</time>
      </trkpt>
      <trkpt lat="45.75011" lon="6.53663">
        <ele>1685.83</ele>
        <time>2021-02-20T09:02:33.000Z</time>
      </trkpt>
      <trkpt lat="45.75005" lon="6.53653">
        <ele>1687.56</ele>
        <time>2021-02-20T09:02:49.000Z</time>
      </trkpt>
      <trkpt lat="45.75" lon="6.53642">
        <ele>1689.6</ele>
        <time>2021-02-20T09:03:08.000Z</time>
      </trkpt>
      <trkpt lat="45.74994" lon="6.53632">
        <ele>1689.98</ele>
        <time>2021-02-20T09:03:25.000Z</time>
      </trkpt>
      <trkpt lat="45.74989" lon="6.5362">
        <ele>1691.91</ele>
        <time>2021-02-20T09:03:41.000Z</time>
      </trkpt>
      <trkpt lat="45.74984" lon="6.53608">
        <ele>1693.41</ele>
        <time>2021-02-20T09:04:03.000Z</time>
      </trkpt>
      <trkpt lat="45.74981" lon="6.53595">
        <ele>1696.04</ele>
        <time>2021-02-20T09:04:23.000Z</time>
      </trkpt>
      <trkpt lat="45.74978" lon="6.53582">
        <ele>1697.08</ele>
        <time>2021-02-20T09:04:40.000Z</time>
      </trkpt>
      <trkpt lat="45.74981" lon="6.5357">
        <ele>1700.32</ele>
        <time>2021-02-20T09:05:15.000Z</time>
      </trkpt>
      <trkpt lat="45.74988" lon="6.5356">
        <ele>1701.84</ele>
        <time>2021-02-20T09:05:48.000Z</time>
      </trkpt>
      <trkpt lat="45.7499" lon="6.53548">
        <ele>1702.62</ele>
        <time>2021-02-20T09:05:58.999Z</time>
      </trkpt>
      <trkpt lat="45.74989" lon="6.53534">
        <ele>1701.74</ele>
        <time>2021-02-20T09:06:16.999Z</time>
      </trkpt>
      <trkpt lat="45.74988" lon="6.53521">
        <ele>1703.41</ele>
        <time>2021-02-20T09:06:47.999Z</time>
      </trkpt>
      <trkpt lat="45.74987" lon="6.53508">
        <ele>1704.73</ele>
        <time>2021-02-20T09:10:17.999Z</time>
      </trkpt>
      <trkpt lat="45.74984" lon="6.53495">
        <ele>1705.45</ele>
        <time>2021-02-20T09:10:27.999Z</time>
      </trkpt>
      <trkpt lat="45.74984" lon="6.53481">
        <ele>1705.9</ele>
        <time>2021-02-20T09:10:43.999Z</time>
      </trkpt>
      <trkpt lat="45.7499" lon="6.53469">
        <ele>1708.06</ele>
        <time>2021-02-20T09:10:57.999Z</time>
      </trkpt>
      <trkpt lat="45.74997" lon="6.53461">
        <ele>1704.83</ele>
        <time>2021-02-20T09:11:21.999Z</time>
      </trkpt>
      <trkpt lat="45.74999" lon="6.53448">
        <ele>1706.89</ele>
        <time>2021-02-20T09:11:30.999Z</time>
      </trkpt>
      <trkpt lat="45.75004" lon="6.53437">
        <ele>1707.92</ele>
        <time>2021-02-20T09:11:43.999Z</time>
      </trkpt>
      <trkpt lat="45.75008" lon="6.53425">
        <ele>1706.61</ele>
        <time>2021-02-20T09:11:59.999Z</time>
      </trkpt>
      <trkpt lat="45.7501" lon="6.53412">
        <ele>1708.75</ele>
        <time>2021-02-20T09:12:13.999Z</time>
      </trkpt>
      <trkpt lat="45.75011" lon="6.53398">
        <ele>1712.5</ele>
        <time>2021-02-20T09:12:22.999Z</time>
      </trkpt>
      <trkpt lat="45.75015" lon="6.53386">
        <ele>1713.24</ele>
        <time>2021-02-20T09:12:37.999Z</time>
      </trkpt>
      <trkpt lat="45.75019" lon="6.53373">
        <ele>1713.18</ele>
        <time>2021-02-20T09:12:50.999Z</time>
      </trkpt>
      <trkpt lat="45.75022" lon="6.53361">
        <ele>1712.28</ele>
        <time>2021-02-20T09:13:05.999Z</time>
      </trkpt>
      <trkpt lat="45.75023" lon="6.53349">
        <ele>1712.32</ele>
        <time>2021-02-20T09:13:21.999Z</time>
      </trkpt>
      <trkpt lat="45.75023" lon="6.53335">
        <ele>1714.02</ele>
        <time>2021-02-20T09:13:34.999Z</time>
      </trkpt>
      <trkpt lat="45.75019" lon="6.53323">
        <ele>1714.28</ele>
        <time>2021-02-20T09:14:34.999Z</time>
      </trkpt>
      <trkpt lat="45.75012" lon="6.53316">
        <ele>1716.57</ele>
        <time>2021-02-20T09:14:49.999Z</time>
      </trkpt>
      <trkpt lat="45.75003" lon="6.53311">
        <ele>1718.11</ele>
        <time>2021-02-20T09:15:04.999Z</time>
      </trkpt>
      <trkpt lat="45.74994" lon="6.53311">
        <ele>1720.87</ele>
        <time>2021-02-20T09:15:15.999Z</time>
      </trkpt>
      <trkpt lat="45.74984" lon="6.5331">
        <ele>1727.04</ele>
        <time>2021-02-20T09:15:33.999Z</time>
      </trkpt>
      <trkpt lat="45.74976" lon="6.53314">
        <ele>1728.43</ele>
        <time>2021-02-20T09:15:49.999Z</time>
      </trkpt>
      <trkpt lat="45.74966" lon="6.53316">
        <ele>1728.86</ele>
        <time>2021-02-20T09:16:03.999Z</time>
      </trkpt>
      <trkpt lat="45.74962" lon="6.53305">
        <ele>1726.14</ele>
        <time>2021-02-20T09:19:47.000Z</time>
      </trkpt>
      <trkpt lat="45.74963" lon="6.53291">
        <ele>1728.24</ele>
        <time>2021-02-20T09:19:55.000Z</time>
      </trkpt>
      <trkpt lat="45.74963" lon="6.53278">
        <ele>1730.48</ele>
        <time>2021-02-20T09:20:12.000Z</time>
      </trkpt>
      <trkpt lat="45.74964" lon="6.53265">
        <ele>1734.2</ele>
        <time>2021-02-20T09:20:35.000Z</time>
      </trkpt>
      <trkpt lat="45.74964" lon="6.53252">
        <ele>1735.75</ele>
        <time>2021-02-20T09:20:51.000Z</time>
      </trkpt>
      <trkpt lat="45.74964" lon="6.53238">
        <ele>1736.44</ele>
        <time>2021-02-20T09:21:25.000Z</time>
      </trkpt>
      <trkpt lat="45.74962" lon="6.53225">
        <ele>1738.03</ele>
        <time>2021-02-20T09:21:38.000Z</time>
      </trkpt>
      <trkpt lat="45.74963" lon="6.53212">
        <ele>1738.83</ele>
        <time>2021-02-20T09:21:52.000Z</time>
      </trkpt>
      <trkpt lat="45.74964" lon="6.53199">
        <ele>1738.7</ele>
        <time>2021-02-20T09:22:06.000Z</time>
      </trkpt>
      <trkpt lat="45.74966" lon="6.53185">
        <ele>1741.17</ele>
        <time>2021-02-20T09:22:18.000Z</time>
      </trkpt>
      <trkpt lat="45.74967" lon="6.53172">
        <ele>1743.17</ele>
        <time>2021-02-20T09:22:34.000Z</time>
      </trkpt>
      <trkpt lat="45.74963" lon="6.53159">
        <ele>1743.45</ele>
        <time>2021-02-20T09:22:52.000Z</time>
      </trkpt>
      <trkpt lat="45.74956" lon="6.53151">
        <ele>1745.52</ele>
        <time>2021-02-20T09:23:12.000Z</time>
      </trkpt>
      <trkpt lat="45.74948" lon="6.53145">
        <ele>1747.46</ele>
        <time>2021-02-20T09:23:38.000Z</time>
      </trkpt>
      <trkpt lat="45.74938" lon="6.53149">
        <ele>1748.9</ele>
        <time>2021-02-20T09:23:56.000Z</time>
      </trkpt>
      <trkpt lat="45.74929" lon="6.53149">
        <ele>1750.49</ele>
        <time>2021-02-20T09:24:09.000Z</time>
      </trkpt>
      <trkpt lat="45.74922" lon="6.53139">
        <ele>1750.6</ele>
        <time>2021-02-20T09:24:19.000Z</time>
      </trkpt>
      <trkpt lat="45.74919" lon="6.53127">
        <ele>1752.14</ele>
        <time>2021-02-20T09:24:33.000Z</time>
      </trkpt>
      <trkpt lat="45.74918" lon="6.53114">
        <ele>1751.38</ele>
        <time>2021-02-20T09:24:45.000Z</time>
      </trkpt>
      <trkpt lat="45.74917" lon="6.53101">
        <ele>1752.71</ele>
        <time>2021-02-20T09:24:59.000Z</time>
      </trkpt>
      <trkpt lat="45.74918" lon="6.53087">
        <ele>1754.78</ele>
        <time>2021-02-20T09:25:11.000Z</time>
      </trkpt>
      <trkpt lat="45.74921" lon="6.53074">
        <ele>1754.24</ele>
        <time>2021-02-20T09:25:23.000Z</time>
      </trkpt>
      <trkpt lat="45.74923" lon="6.53061">
        <ele>1754.72</ele>
        <time>2021-02-20T09:25:35.000Z</time>
      </trkpt>
      <trkpt lat="45.74923" lon="6.53048">
        <ele>1756.99</ele>
        <time>2021-02-20T09:28:32.000Z</time>
      </trkpt>
      <trkpt lat="45.74918" lon="6.53036">
        <ele>1757.57</ele>
        <time>2021-02-20T09:28:48.000Z</time>
      </trkpt>
      <trkpt lat="45.74918" lon="6.53023">
        <ele>1759.25</ele>
        <time>2021-02-20T09:29:00.000Z</time>
      </trkpt>
      <trkpt lat="45.7492" lon="6.5301">
        <ele>1759.87</ele>
        <time>2021-02-20T09:29:15.999Z</time>
      </trkpt>
      <trkpt lat="45.74921" lon="6.52997">
        <ele>1758.99</ele>
        <time>2021-02-20T09:29:31.999Z</time>
      </trkpt>
      <trkpt lat="45.74918" lon="6.52984">
        <ele>1760.11</ele>
        <time>2021-02-20T09:29:55.999Z</time>
      </trkpt>
      <trkpt lat="45.74917" lon="6.52971">
        <ele>1762.46</ele>
        <time>2021-02-20T09:30:14.999Z</time>
      </trkpt>
      <trkpt lat="45.7491" lon="6.52963">
        <ele>1764.61</ele>
        <time>2021-02-20T09:30:49.999Z</time>
      </trkpt>
      <trkpt lat="45.74901" lon="6.52957">
        <ele>1766.17</ele>
        <time>2021-02-20T09:31:20.999Z</time>
      </trkpt>
      <trkpt lat="45.74893" lon="6.5295">
        <ele>1767.15</ele>
        <time>2021-02-20T09:31:34.999Z</time>
      </trkpt>
      <trkpt lat="45.74888" lon="6.52939">
        <ele>1768.14</ele>
        <time>2021-02-20T09:31:45.999Z</time>
      </trkpt>
      <trkpt lat="45.74887" lon="6.52926">
        <ele>1770.17</ele>
        <time>2021-02-20T09:31:57.999Z</time>
      </trkpt>
      <trkpt lat="45.74889" lon="6.52913">
        <ele>1772.71</ele>
        <time>2021-02-20T09:32:19.999Z</time>
      </trkpt>
      <trkpt lat="45.74893" lon="6.529">
        <ele>1775.13</ele>
        <time>2021-02-20T09:32:40.999Z</time>
      </trkpt>
      <trkpt lat="45.74895" lon="6.52888">
        <ele>1777.42</ele>
        <time>2021-02-20T09:32:57.999Z</time>
      </trkpt>
      <trkpt lat="45.74895" lon="6.52875">
        <ele>1778.01</ele>
        <time>2021-02-20T09:33:21.999Z</time>
      </trkpt>
      <trkpt lat="45.7489" lon="6.52864">
        <ele>1778.56</ele>
        <time>2021-02-20T09:33:36.999Z</time>
      </trkpt>
      <trkpt lat="45.74883" lon="6.52856">
        <ele>1779.97</ele>
        <time>2021-02-20T09:33:55.999Z</time>
      </trkpt>
      <trkpt lat="45.74874" lon="6.52853">
        <ele>1780.49</ele>
        <time>2021-02-20T09:34:10.999Z</time>
      </trkpt>
      <trkpt lat="45.74865" lon="6.52851">
        <ele>1779.15</ele>
        <time>2021-02-20T09:34:23.999Z</time>
      </trkpt>
      <trkpt lat="45.74855" lon="6.52851">
        <ele>1780.7</ele>
        <time>2021-02-20T09:34:37.999Z</time>
      </trkpt>
      <trkpt lat="45.74846" lon="6.52849">
        <ele>1781.39</ele>
        <time>2021-02-20T09:34:50.999Z</time>
      </trkpt>
      <trkpt lat="45.74838" lon="6.52846">
        <ele>1782.22</ele>
        <time>2021-02-20T09:35:04.999Z</time>
      </trkpt>
      <trkpt lat="45.74829" lon="6.52845">
        <ele>1783.83</ele>
        <time>2021-02-20T09:35:20.999Z</time>
      </trkpt>
      <trkpt lat="45.7482" lon="6.5284">
        <ele>1784.28</ele>
        <time>2021-02-20T09:35:40.999Z</time>
      </trkpt>
      <trkpt lat="45.74811" lon="6.52836">
        <ele>1784.41</ele>
        <time>2021-02-20T09:35:58.999Z</time>
      </trkpt>
      <trkpt lat="45.74802" lon="6.52832">
        <ele>1784.57</ele>
        <time>2021-02-20T09:36:16.999Z</time>
      </trkpt>
      <trkpt lat="45.74793" lon="6.52832">
        <ele>1786.56</ele>
        <time>2021-02-20T09:36:29.999Z</time>
      </trkpt>
      <trkpt lat="45.74785" lon="6.52827">
        <ele>1786.11</ele>
        <time>2021-02-20T09:36:42.999Z</time>
      </trkpt>
      <trkpt lat="45.74777" lon="6.52819">
        <ele>1786.64</ele>
        <time>2021-02-20T09:36:52.999Z</time>
      </trkpt>
      <trkpt lat="45.7477" lon="6.5281">
        <ele>1786.38</ele>
        <time>2021-02-20T09:37:08.999Z</time>
      </trkpt>
      <trkpt lat="45.74763" lon="6.52802">
        <ele>1785.33</ele>
        <time>2021-02-20T09:37:21.999Z</time>
      </trkpt>
      <trkpt lat="45.74754" lon="6.52798">
        <ele>1787.09</ele>
        <time>2021-02-20T09:37:37.999Z</time>
      </trkpt>
      <trkpt lat="45.74746" lon="6.5279">
        <ele>1788.03</ele>
        <time>2021-02-20T09:37:55.999Z</time>
      </trkpt>
      <trkpt lat="45.7474" lon="6.52781">
        <ele>1788.22</ele>
        <time>2021-02-20T09:38:08.999Z</time>
      </trkpt>
      <trkpt lat="45.74734" lon="6.5277">
        <ele>1789.04</ele>
        <time>2021-02-20T09:39:23.999Z</time>
      </trkpt>
      <trkpt lat="45.74727" lon="6.52762">
        <ele>1787.91</ele>
        <time>2021-02-20T09:43:56.000Z</time>
      </trkpt>
      <trkpt lat="45.74724" lon="6.5275">
        <ele>1788.9</ele>
        <time>2021-02-20T09:44:09.000Z</time>
      </trkpt>
      <trkpt lat="45.74723" lon="6.52737">
        <ele>1791</ele>
        <time>2021-02-20T09:44:26.000Z</time>
      </trkpt>
      <trkpt lat="45.74723" lon="6.52723">
        <ele>1792.55</ele>
        <time>2021-02-20T09:44:42.000Z</time>
      </trkpt>
      <trkpt lat="45.74723" lon="6.5271">
        <ele>1794.19</ele>
        <time>2021-02-20T09:45:06.000Z</time>
      </trkpt>
      <trkpt lat="45.74725" lon="6.52696">
        <ele>1796.17</ele>
        <time>2021-02-20T09:45:33.000Z</time>
      </trkpt>
      <trkpt lat="45.74725" lon="6.52683">
        <ele>1797.88</ele>
        <time>2021-02-20T09:45:45.000Z</time>
      </trkpt>
      <trkpt lat="45.74724" lon="6.5267">
        <ele>1798.19</ele>
        <time>2021-02-20T09:46:01.000Z</time>
      </trkpt>
      <trkpt lat="45.74719" lon="6.52658">
        <ele>1800.16</ele>
        <time>2021-02-20T09:46:22.000Z</time>
      </trkpt>
      <trkpt lat="45.74719" lon="6.52644">
        <ele>1800.48</ele>
        <time>2021-02-20T09:46:37.000Z</time>
      </trkpt>
      <trkpt lat="45.74716" lon="6.52632">
        <ele>1801.13</ele>
        <time>2021-02-20T09:46:50.000Z</time>
      </trkpt>
      <trkpt lat="45.74714" lon="6.52618">
        <ele>1803.57</ele>
        <time>2021-02-20T09:47:01.000Z</time>
      </trkpt>
      <trkpt lat="45.7471" lon="6.52607">
        <ele>1804.5</ele>
        <time>2021-02-20T09:47:17.000Z</time>
      </trkpt>
      <trkpt lat="45.74706" lon="6.52595">
        <ele>1805.14</ele>
        <time>2021-02-20T09:47:34.000Z</time>
      </trkpt>
      <trkpt lat="45.74703" lon="6.52581">
        <ele>1806.79</ele>
        <time>2021-02-20T09:47:51.000Z</time>
      </trkpt>
      <trkpt lat="45.74701" lon="6.52568">
        <ele>1807.63</ele>
        <time>2021-02-20T09:48:04.000Z</time>
      </trkpt>
      <trkpt lat="45.74699" lon="6.52555">
        <ele>1806.79</ele>
        <time>2021-02-20T09:48:20.000Z</time>
      </trkpt>
      <trkpt lat="45.74698" lon="6.52542">
        <ele>1808.85</ele>
        <time>2021-02-20T09:48:34.000Z</time>
      </trkpt>
      <trkpt lat="45.74698" lon="6.52528">
        <ele>1810.69</ele>
        <time>2021-02-20T09:48:57.000Z</time>
      </trkpt>
      <trkpt lat="45.747" lon="6.52515">
        <ele>1812.06</ele>
        <time>2021-02-20T09:49:11.000Z</time>
      </trkpt>
      <trkpt lat="45.747" lon="6.52502">
        <ele>1813.93</ele>
        <time>2021-02-20T09:49:25.000Z</time>
      </trkpt>
      <trkpt lat="45.74702" lon="6.52489">
        <ele>1814.41</ele>
        <time>2021-02-20T09:49:51.000Z</time>
      </trkpt>
      <trkpt lat="45.74705" lon="6.52476">
        <ele>1813.42</ele>
        <time>2021-02-20T09:50:01.000Z</time>
      </trkpt>
      <trkpt lat="45.74708" lon="6.52463">
        <ele>1814.99</ele>
        <time>2021-02-20T09:50:13.000Z</time>
      </trkpt>
      <trkpt lat="45.74711" lon="6.52451">
        <ele>1816.57</ele>
        <time>2021-02-20T09:50:26.000Z</time>
      </trkpt>
      <trkpt lat="45.74715" lon="6.52438">
        <ele>1816.47</ele>
        <time>2021-02-20T09:50:37.000Z</time>
      </trkpt>
      <trkpt lat="45.7472" lon="6.52427">
        <ele>1817.5</ele>
        <time>2021-02-20T09:51:09.000Z</time>
      </trkpt>
      <trkpt lat="45.74723" lon="6.52415">
        <ele>1819.57</ele>
        <time>2021-02-20T09:51:23.000Z</time>
      </trkpt>
      <trkpt lat="45.7473" lon="6.52405">
        <ele>1823.27</ele>
        <time>2021-02-20T09:51:41.000Z</time>
      </trkpt>
      <trkpt lat="45.74735" lon="6.52393">
        <ele>1823.83</ele>
        <time>2021-02-20T09:51:54.000Z</time>
      </trkpt>
      <trkpt lat="45.7474" lon="6.52382">
        <ele>1827.75</ele>
        <time>2021-02-20T09:53:07.999Z</time>
      </trkpt>
      <trkpt lat="45.74744" lon="6.5237">
        <ele>1828.21</ele>
        <time>2021-02-20T09:53:23.999Z</time>
      </trkpt>
      <trkpt lat="45.74748" lon="6.52358">
        <ele>1828.36</ele>
        <time>2021-02-20T09:53:48.999Z</time>
      </trkpt>
      <trkpt lat="45.74754" lon="6.52349">
        <ele>1829.97</ele>
        <time>2021-02-20T09:54:12.999Z</time>
      </trkpt>
      <trkpt lat="45.74762" lon="6.52341">
        <ele>1829.66</ele>
        <time>2021-02-20T09:54:51.999Z</time>
      </trkpt>
      <trkpt lat="45.74767" lon="6.52329">
        <ele>1831.82</ele>
        <time>2021-02-20T09:56:42.999Z</time>
      </trkpt>
      <trkpt lat="45.7477" lon="6.52317">
        <ele>1832.43</ele>
        <time>2021-02-20T09:56:54.999Z</time>
      </trkpt>
      <trkpt lat="45.74776" lon="6.52306">
        <ele>1833.28</ele>
        <time>2021-02-20T09:57:09.999Z</time>
      </trkpt>
      <trkpt lat="45.74781" lon="6.52294">
        <ele>1832.77</ele>
        <time>2021-02-20T09:57:23.999Z</time>
      </trkpt>
      <trkpt lat="45.74786" lon="6.52283">
        <ele>1833.99</ele>
        <time>2021-02-20T09:57:37.999Z</time>
      </trkpt>
      <trkpt lat="45.74792" lon="6.52273">
        <ele>1836.34</ele>
        <time>2021-02-20T09:58:41.999Z</time>
      </trkpt>
      <trkpt lat="45.74795" lon="6.5226">
        <ele>1837.8</ele>
        <time>2021-02-20T09:58:54.999Z</time>
      </trkpt>
      <trkpt lat="45.748" lon="6.52249">
        <ele>1839.34</ele>
        <time>2021-02-20T09:59:09.999Z</time>
      </trkpt>
      <trkpt lat="45.74805" lon="6.52238">
        <ele>1840.32</ele>
        <time>2021-02-20T09:59:28.999Z</time>
      </trkpt>
      <trkpt lat="45.74808" lon="6.52224">
        <ele>1841.6</ele>
        <time>2021-02-20T09:59:42.999Z</time>
      </trkpt>
      <trkpt lat="45.74811" lon="6.52212">
        <ele>1842.85</ele>
        <time>2021-02-20T09:59:55.999Z</time>
      </trkpt>
      <trkpt lat="45.74814" lon="6.52199">
        <ele>1843.27</ele>
        <time>2021-02-20T10:00:08.999Z</time>
      </trkpt>
      <trkpt lat="45.74818" lon="6.52187">
        <ele>1843.55</ele>
        <time>2021-02-20T10:00:20.999Z</time>
      </trkpt>
      <trkpt lat="45.74822" lon="6.52175">
        <ele>1844.73</ele>
        <time>2021-02-20T10:00:35.999Z</time>
      </trkpt>
      <trkpt lat="45.74824" lon="6.52161">
        <ele>1846.58</ele>
        <time>2021-02-20T10:00:50.999Z</time>
      </trkpt>
      <trkpt lat="45.74826" lon="6.52148">
        <ele>1849.06</ele>
        <time>2021-02-20T10:01:02.999Z</time>
      </trkpt>
      <trkpt lat="45.74826" lon="6.52135">
        <ele>1850.83</ele>
        <time>2021-02-20T10:01:17.999Z</time>
      </trkpt>
      <trkpt lat="45.74826" lon="6.52121">
        <ele>1851.61</ele>
        <time>2021-02-20T10:01:28.999Z</time>
      </trkpt>
      <trkpt lat="45.74827" lon="6.52108">
        <ele>1852.78</ele>
        <time>2021-02-20T10:01:41.999Z</time>
      </trkpt>
      <trkpt lat="45.74826" lon="6.52094">
        <ele>1854.19</ele>
        <time>2021-02-20T10:01:53.999Z</time>
      </trkpt>
      <trkpt lat="45.74826" lon="6.52081">
        <ele>1855.06</ele>
        <time>2021-02-20T10:02:04.999Z</time>
      </trkpt>
      <trkpt lat="45.74826" lon="6.52067">
        <ele>1855.95</ele>
        <time>2021-02-20T10:02:17.999Z</time>
      </trkpt>
      <trkpt lat="45.74826" lon="6.52054">
        <ele>1856.95</ele>
        <time>2021-02-20T10:02:29.999Z</time>
      </trkpt>
      <trkpt lat="45.74828" lon="6.52041">
        <ele>1856.54</ele>
        <time>2021-02-20T10:02:38.999Z</time>
      </trkpt>
      <trkpt lat="45.74828" lon="6.52028">
        <ele>1857.72</ele>
        <time>2021-02-20T10:02:49.999Z</time>
      </trkpt>
      <trkpt lat="45.7483" lon="6.52015">
        <ele>1857.02</ele>
        <time>2021-02-20T10:03:00.999Z</time>
      </trkpt>
      <trkpt lat="45.7483" lon="6.52002">
        <ele>1859.94</ele>
        <time>2021-02-20T10:03:31.999Z</time>
      </trkpt>
      <trkpt lat="45.74835" lon="6.51991">
        <ele>1860.64</ele>
        <time>2021-02-20T10:04:24.000Z</time>
      </trkpt>
      <trkpt lat="45.74839" lon="6.51979">
        <ele>1860.96</ele>
        <time>2021-02-20T10:04:42.000Z</time>
      </trkpt>
      <trkpt lat="45.74844" lon="6.51967">
        <ele>1861.52</ele>
        <time>2021-02-20T10:04:55.000Z</time>
      </trkpt>
      <trkpt lat="45.74849" lon="6.51956">
        <ele>1861.72</ele>
        <time>2021-02-20T10:05:10.000Z</time>
      </trkpt>
      <trkpt lat="45.74853" lon="6.51943">
        <ele>1862.63</ele>
        <time>2021-02-20T10:05:30.000Z</time>
      </trkpt>
      <trkpt lat="45.74857" lon="6.5193">
        <ele>1863.51</ele>
        <time>2021-02-20T10:05:43.000Z</time>
      </trkpt>
      <trkpt lat="45.74861" lon="6.51918">
        <ele>1864.59</ele>
        <time>2021-02-20T10:05:55.000Z</time>
      </trkpt>
      <trkpt lat="45.74866" lon="6.51907">
        <ele>1866.6</ele>
        <time>2021-02-20T10:06:09.000Z</time>
      </trkpt>
      <trkpt lat="45.74872" lon="6.51898">
        <ele>1868.59</ele>
        <time>2021-02-20T10:08:37.000Z</time>
      </trkpt>
      <trkpt lat="45.7488" lon="6.5189">
        <ele>1869.16</ele>
        <time>2021-02-20T10:08:48.000Z</time>
      </trkpt>
      <trkpt lat="45.74885" lon="6.51879">
        <ele>1870.33</ele>
        <time>2021-02-20T10:09:03.000Z</time>
      </trkpt>
      <trkpt lat="45.7489" lon="6.51868">
        <ele>1871.32</ele>
        <time>2021-02-20T10:09:17.000Z</time>
      </trkpt>
      <trkpt lat="45.74893" lon="6.51856">
        <ele>1872.07</ele>
        <time>2021-02-20T10:09:33.000Z</time>
      </trkpt>
      <trkpt lat="45.749" lon="6.51846">
        <ele>1873.16</ele>
        <time>2021-02-20T10:09:50.000Z</time>
      </trkpt>
      <trkpt lat="45.74905" lon="6.51836">
        <ele>1874.32</ele>
        <time>2021-02-20T10:10:40.000Z</time>
      </trkpt>
      <trkpt lat="45.74911" lon="6.51826">
        <ele>1875.76</ele>
        <time>2021-02-20T10:11:09.000Z</time>
      </trkpt>
      <trkpt lat="45.74916" lon="6.51816">
        <ele>1876.51</ele>
        <time>2021-02-20T10:11:28.000Z</time>
      </trkpt>
      <trkpt lat="45.74922" lon="6.51804">
        <ele>1879.13</ele>
        <time>2021-02-20T10:12:49.000Z</time>
      </trkpt>
      <trkpt lat="45.74924" lon="6.51791">
        <ele>1880.93</ele>
        <time>2021-02-20T10:13:01.000Z</time>
      </trkpt>
      <trkpt lat="45.74927" lon="6.51778">
        <ele>1882.34</ele>
        <time>2021-02-20T10:13:15.000Z</time>
      </trkpt>
      <trkpt lat="45.74928" lon="6.51765">
        <ele>1883.57</ele>
        <time>2021-02-20T10:13:28.000Z</time>
      </trkpt>
      <trkpt lat="45.74928" lon="6.51752">
        <ele>1884.37</ele>
        <time>2021-02-20T10:13:49.000Z</time>
      </trkpt>
      <trkpt lat="45.74928" lon="6.51738">
        <ele>1884.6</ele>
        <time>2021-02-20T10:14:05.000Z</time>
      </trkpt>
      <trkpt lat="45.74921" lon="6.51728">
        <ele>1886.92</ele>
        <time>2021-02-20T10:14:42.000Z</time>
      </trkpt>
      <trkpt lat="45.74913" lon="6.51722">
        <ele>1889.58</ele>
        <time>2021-02-20T10:16:00.999Z</time>
      </trkpt>
      <trkpt lat="45.74904" lon="6.51716">
        <ele>1890.58</ele>
        <time>2021-02-20T10:16:16.999Z</time>
      </trkpt>
      <trkpt lat="45.74896" lon="6.51711">
        <ele>1892.66</ele>
        <time>2021-02-20T10:16:35.999Z</time>
      </trkpt>
      <trkpt lat="45.74888" lon="6.51706">
        <ele>1894.06</ele>
        <time>2021-02-20T10:17:55.999Z</time>
      </trkpt>
      <trkpt lat="45.7488" lon="6.51697">
        <ele>1896.05</ele>
        <time>2021-02-20T10:18:12.999Z</time>
      </trkpt>
      <trkpt lat="45.74879" lon="6.51684">
        <ele>1897.85</ele>
        <time>2021-02-20T10:18:25.999Z</time>
      </trkpt>
      <trkpt lat="45.74876" lon="6.51671">
        <ele>1900.1</ele>
        <time>2021-02-20T10:18:38.999Z</time>
      </trkpt>
      <trkpt lat="45.74876" lon="6.51658">
        <ele>1901.75</ele>
        <time>2021-02-20T10:18:52.999Z</time>
      </trkpt>
      <trkpt lat="45.74875" lon="6.51645">
        <ele>1902.65</ele>
        <time>2021-02-20T10:19:08.999Z</time>
      </trkpt>
      <trkpt lat="45.74873" lon="6.51632">
        <ele>1904.37</ele>
        <time>2021-02-20T10:19:25.999Z</time>
      </trkpt>
      <trkpt lat="45.74869" lon="6.5162">
        <ele>1906</ele>
        <time>2021-02-20T10:20:07.999Z</time>
      </trkpt>
      <trkpt lat="45.74869" lon="6.51605">
        <ele>1905.8</ele>
        <time>2021-02-20T10:20:18.999Z</time>
      </trkpt>
      <trkpt lat="45.74868" lon="6.51593">
        <ele>1905.4</ele>
        <time>2021-02-20T10:20:26.999Z</time>
      </trkpt>
      <trkpt lat="45.74864" lon="6.51581">
        <ele>1906.51</ele>
        <time>2021-02-20T10:20:34.999Z</time>
      </trkpt>
      <trkpt lat="45.74861" lon="6.51568">
        <ele>1909.93</ele>
        <time>2021-02-20T10:20:48.999Z</time>
      </trkpt>
      <trkpt lat="45.74859" lon="6.51555">
        <ele>1911.64</ele>
        <time>2021-02-20T10:21:03.999Z</time>
      </trkpt>
      <trkpt lat="45.74857" lon="6.51542">
        <ele>1914.28</ele>
        <time>2021-02-20T10:21:49.999Z</time>
      </trkpt>
      <trkpt lat="45.74855" lon="6.51529">
        <ele>1915.98</ele>
        <time>2021-02-20T10:22:04.999Z</time>
      </trkpt>
      <trkpt lat="45.74852" lon="6.51516">
        <ele>1917.37</ele>
        <time>2021-02-20T10:22:22.999Z</time>
      </trkpt>
      <trkpt lat="45.7485" lon="6.51503">
        <ele>1918.05</ele>
        <time>2021-02-20T10:22:36.999Z</time>
      </trkpt>
      <trkpt lat="45.74845" lon="6.51492">
        <ele>1919.57</ele>
        <time>2021-02-20T10:23:22.999Z</time>
      </trkpt>
      <trkpt lat="45.74844" lon="6.51479">
        <ele>1921.71</ele>
        <time>2021-02-20T10:24:46.999Z</time>
      </trkpt>
      <trkpt lat="45.74842" lon="6.51466">
        <ele>1921.92</ele>
        <time>2021-02-20T10:24:56.999Z</time>
      </trkpt>
      <trkpt lat="45.74839" lon="6.51453">
        <ele>1922.48</ele>
        <time>2021-02-20T10:25:06.999Z</time>
      </trkpt>
      <trkpt lat="45.74836" lon="6.5144">
        <ele>1923.11</ele>
        <time>2021-02-20T10:25:19.999Z</time>
      </trkpt>
      <trkpt lat="45.74835" lon="6.51427">
        <ele>1922.89</ele>
        <time>2021-02-20T10:25:30.999Z</time>
      </trkpt>
      <trkpt lat="45.74834" lon="6.51414">
        <ele>1922.38</ele>
        <time>2021-02-20T10:25:41.999Z</time>
      </trkpt>
      <trkpt lat="45.74833" lon="6.51401">
        <ele>1920.62</ele>
        <time>2021-02-20T10:25:52.999Z</time>
      </trkpt>
      <trkpt lat="45.74831" lon="6.51387">
        <ele>1921.26</ele>
        <time>2021-02-20T10:26:04.999Z</time>
      </trkpt>
      <trkpt lat="45.7483" lon="6.51374">
        <ele>1922.07</ele>
        <time>2021-02-20T10:26:16.999Z</time>
      </trkpt>
      <trkpt lat="45.74828" lon="6.51361">
        <ele>1923.15</ele>
        <time>2021-02-20T10:26:27.999Z</time>
      </trkpt>
      <trkpt lat="45.74826" lon="6.51348">
        <ele>1924.71</ele>
        <time>2021-02-20T10:26:39.999Z</time>
      </trkpt>
      <trkpt lat="45.74826" lon="6.51335">
        <ele>1925.4</ele>
        <time>2021-02-20T10:26:50.999Z</time>
      </trkpt>
      <trkpt lat="45.74826" lon="6.51321">
        <ele>1926.39</ele>
        <time>2021-02-20T10:27:39.000Z</time>
      </trkpt>
      <trkpt lat="45.74825" lon="6.51308">
        <ele>1927.19</ele>
        <time>2021-02-20T10:27:50.000Z</time>
      </trkpt>
      <trkpt lat="45.74823" lon="6.51295">
        <ele>1929.34</ele>
        <time>2021-02-20T10:28:01.000Z</time>
      </trkpt>
      <trkpt lat="45.74823" lon="6.51282">
        <ele>1928.85</ele>
        <time>2021-02-20T10:28:13.000Z</time>
      </trkpt>
      <trkpt lat="45.74821" lon="6.51269">
        <ele>1930.36</ele>
        <time>2021-02-20T10:28:23.000Z</time>
      </trkpt>
      <trkpt lat="45.74819" lon="6.51255">
        <ele>1930.82</ele>
        <time>2021-02-20T10:28:34.000Z</time>
      </trkpt>
      <trkpt lat="45.74816" lon="6.51242">
        <ele>1931.66</ele>
        <time>2021-02-20T10:28:44.000Z</time>
      </trkpt>
      <trkpt lat="45.74815" lon="6.5123">
        <ele>1932.43</ele>
        <time>2021-02-20T10:28:54.000Z</time>
      </trkpt>
      <trkpt lat="45.74814" lon="6.51217">
        <ele>1932.3</ele>
        <time>2021-02-20T10:29:05.000Z</time>
      </trkpt>
      <trkpt lat="45.74812" lon="6.51204">
        <ele>1931.84</ele>
        <time>2021-02-20T10:29:14.000Z</time>
      </trkpt>
      <trkpt lat="45.7481" lon="6.5119">
        <ele>1933.9</ele>
        <time>2021-02-20T10:29:27.000Z</time>
      </trkpt>
      <trkpt lat="45.74808" lon="6.51177">
        <ele>1936.69</ele>
        <time>2021-02-20T10:29:40.000Z</time>
      </trkpt>
      <trkpt lat="45.74807" lon="6.51163">
        <ele>1936.39</ele>
        <time>2021-02-20T10:29:53.000Z</time>
      </trkpt>
      <trkpt lat="45.74806" lon="6.5115">
        <ele>1939.64</ele>
        <time>2021-02-20T10:30:07.000Z</time>
      </trkpt>
      <trkpt lat="45.74805" lon="6.51137">
        <ele>1944.69</ele>
        <time>2021-02-20T10:30:27.000Z</time>
      </trkpt>
      <trkpt lat="45.74803" lon="6.51123">
        <ele>1949</ele>
        <time>2021-02-20T10:30:45.000Z</time>
      </trkpt>
      <trkpt lat="45.74804" lon="6.51111">
        <ele>1952.29</ele>
        <time>2021-02-20T10:31:03.000Z</time>
      </trkpt>
      <trkpt lat="45.74805" lon="6.51098">
        <ele>1954.52</ele>
        <time>2021-02-20T10:31:20.000Z</time>
      </trkpt>
      <trkpt lat="45.74805" lon="6.51085">
        <ele>1955.41</ele>
        <time>2021-02-20T10:31:35.000Z</time>
      </trkpt>
      <trkpt lat="45.74806" lon="6.51071">
        <ele>1957.5</ele>
        <time>2021-02-20T10:31:48.000Z</time>
      </trkpt>
      <trkpt lat="45.74806" lon="6.51058">
        <ele>1958.98</ele>
        <time>2021-02-20T10:32:04.000Z</time>
      </trkpt>
      <trkpt lat="45.74805" lon="6.51045">
        <ele>1961.2</ele>
        <time>2021-02-20T10:32:38.000Z</time>
      </trkpt>
      <trkpt lat="45.74804" lon="6.51031">
        <ele>1963.15</ele>
        <time>2021-02-20T10:32:51.000Z</time>
      </trkpt>
      <trkpt lat="45.74803" lon="6.51017">
        <ele>1964.66</ele>
        <time>2021-02-20T10:33:05.000Z</time>
      </trkpt>
      <trkpt lat="45.74797" lon="6.51006">
        <ele>1967.98</ele>
        <time>2021-02-20T10:33:21.000Z</time>
      </trkpt>
      <trkpt lat="45.74799" lon="6.50993">
        <ele>1969.78</ele>
        <time>2021-02-20T10:33:50.000Z</time>
      </trkpt>
      <trkpt lat="45.74796" lon="6.50981">
        <ele>1971.53</ele>
        <time>2021-02-20T10:34:03.000Z</time>
      </trkpt>
      <trkpt lat="45.74793" lon="6.50968">
        <ele>1974.43</ele>
        <time>2021-02-20T10:34:19.000Z</time>
      </trkpt>
      <trkpt lat="45.74791" lon="6.50956">
        <ele>1978.08</ele>
        <time>2021-02-20T10:35:38.000Z</time>
      </trkpt>
      <trkpt lat="45.74788" lon="6.50943">
        <ele>1979</ele>
        <time>2021-02-20T10:36:34.000Z</time>
      </trkpt>
      <trkpt lat="45.74784" lon="6.50931">
        <ele>1979.64</ele>
        <time>2021-02-20T10:36:43.000Z</time>
      </trkpt>
      <trkpt lat="45.7478" lon="6.50919">
        <ele>1980.89</ele>
        <time>2021-02-20T10:36:52.000Z</time>
      </trkpt>
      <trkpt lat="45.74776" lon="6.50906">
        <ele>1982.13</ele>
        <time>2021-02-20T10:37:01.000Z</time>
      </trkpt>
      <trkpt lat="45.74772" lon="6.50894">
        <ele>1982.78</ele>
        <time>2021-02-20T10:37:12.000Z</time>
      </trkpt>
      <trkpt lat="45.7477" lon="6.50881">
        <ele>1983.89</ele>
        <time>2021-02-20T10:37:24.000Z</time>
      </trkpt>
      <trkpt lat="45.74766" lon="6.50869">
        <ele>1986.99</ele>
        <time>2021-02-20T10:37:40.000Z</time>
      </trkpt>
      <trkpt lat="45.74763" lon="6.50856">
        <ele>1989.89</ele>
        <time>2021-02-20T10:38:01.000Z</time>
      </trkpt>
      <trkpt lat="45.74759" lon="6.50844">
        <ele>1992.22</ele>
        <time>2021-02-20T10:38:13.000Z</time>
      </trkpt>
      <trkpt lat="45.74756" lon="6.50832">
        <ele>1993.57</ele>
        <time>2021-02-20T10:38:33.000Z</time>
      </trkpt>
      <trkpt lat="45.74754" lon="6.50818">
        <ele>1994.17</ele>
        <time>2021-02-20T10:39:09.000Z</time>
      </trkpt>
      <trkpt lat="45.74755" lon="6.50806">
        <ele>1994.45</ele>
        <time>2021-02-20T10:39:19.999Z</time>
      </trkpt>
      <trkpt lat="45.74754" lon="6.50792">
        <ele>1994.43</ele>
        <time>2021-02-20T10:39:43.999Z</time>
      </trkpt>
      <trkpt lat="45.74753" lon="6.50778">
        <ele>1991.99</ele>
        <time>2021-02-20T10:39:57.999Z</time>
      </trkpt>
      <trkpt lat="45.74748" lon="6.50767">
        <ele>1992.89</ele>
        <time>2021-02-20T10:40:11.999Z</time>
      </trkpt>
      <trkpt lat="45.74741" lon="6.50759">
        <ele>1991.83</ele>
        <time>2021-02-20T10:40:25.999Z</time>
      </trkpt>
      <trkpt lat="45.74737" lon="6.50747">
        <ele>1991.63</ele>
        <time>2021-02-20T10:40:40.999Z</time>
      </trkpt>
      <trkpt lat="45.74727" lon="6.50744">
        <ele>1992.15</ele>
        <time>2021-02-20T10:40:57.999Z</time>
      </trkpt>
      <trkpt lat="45.74721" lon="6.50734">
        <ele>1992.89</ele>
        <time>2021-02-20T10:47:53.999Z</time>
      </trkpt>
      <trkpt lat="45.74723" lon="6.50721">
        <ele>1994</ele>
        <time>2021-02-20T10:48:05.999Z</time>
      </trkpt>
      <trkpt lat="45.74724" lon="6.50707">
        <ele>1993.31</ele>
        <time>2021-02-20T10:48:15.999Z</time>
      </trkpt>
      <trkpt lat="45.74724" lon="6.50694">
        <ele>1992.55</ele>
        <time>2021-02-20T10:48:26.999Z</time>
      </trkpt>
      <trkpt lat="45.74725" lon="6.5068">
        <ele>1991.99</ele>
        <time>2021-02-20T10:48:36.999Z</time>
      </trkpt>
      <trkpt lat="45.74726" lon="6.50668">
        <ele>1992.14</ele>
        <time>2021-02-20T10:48:48.999Z</time>
      </trkpt>
      <trkpt lat="45.74726" lon="6.50654">
        <ele>1991.76</ele>
        <time>2021-02-20T10:49:05.999Z</time>
      </trkpt>
      <trkpt lat="45.74725" lon="6.50641">
        <ele>1992.42</ele>
        <time>2021-02-20T10:49:15.999Z</time>
      </trkpt>
      <trkpt lat="45.74727" lon="6.50628">
        <ele>1991.52</ele>
        <time>2021-02-20T10:49:27.999Z</time>
      </trkpt>
      <trkpt lat="45.74727" lon="6.50615">
        <ele>1993.01</ele>
        <time>2021-02-20T10:49:39.999Z</time>
      </trkpt>
      <trkpt lat="45.74726" lon="6.50601">
        <ele>1993.53</ele>
        <time>2021-02-20T10:49:52.999Z</time>
      </trkpt>
      <trkpt lat="45.74725" lon="6.50588">
        <ele>1994.48</ele>
        <time>2021-02-20T10:50:18.999Z</time>
      </trkpt>
      <trkpt lat="45.74723" lon="6.50575">
        <ele>1996.54</ele>
        <time>2021-02-20T10:50:35.999Z</time>
      </trkpt>
      <trkpt lat="45.7472" lon="6.50563">
        <ele>1990.71</ele>
        <time>2021-02-20T10:50:49.999Z</time>
      </trkpt>
      <trkpt lat="45.74718" lon="6.50549">
        <ele>1992.92</ele>
        <time>2021-02-20T10:51:02.000Z</time>
      </trkpt>
      <trkpt lat="45.74716" lon="6.50536">
        <ele>1994.01</ele>
        <time>2021-02-20T10:51:26.000Z</time>
      </trkpt>
      <trkpt lat="45.74711" lon="6.50526">
        <ele>1994.96</ele>
        <time>2021-02-20T10:51:53.000Z</time>
      </trkpt>
      <trkpt lat="45.74717" lon="6.50538">
        <ele>1999.7</ele>
        <time>2021-02-20T12:50:54.999Z</time>
      </trkpt>
      <trkpt lat="45.7472" lon="6.50551">
        <ele>1999.6</ele>
        <time>2021-02-20T12:51:03.999Z</time>
      </trkpt>
      <trkpt lat="45.74722" lon="6.50564">
        <ele>1999.57</ele>
        <time>2021-02-20T12:51:14.999Z</time>
      </trkpt>
      <trkpt lat="45.74723" lon="6.50577">
        <ele>2000.41</ele>
        <time>2021-02-20T12:51:27.999Z</time>
      </trkpt>
      <trkpt lat="45.74725" lon="6.5059">
        <ele>2000.02</ele>
        <time>2021-02-20T12:51:43.000Z</time>
      </trkpt>
      <trkpt lat="45.74725" lon="6.50605">
        <ele>2000.94</ele>
        <time>2021-02-20T12:51:55.000Z</time>
      </trkpt>
      <trkpt lat="45.74725" lon="6.5062">
        <ele>2000.56</ele>
        <time>2021-02-20T12:52:05.000Z</time>
      </trkpt>
      <trkpt lat="45.74725" lon="6.50633">
        <ele>1998.9</ele>
        <time>2021-02-20T12:52:16.000Z</time>
      </trkpt>
      <trkpt lat="45.74727" lon="6.50646">
        <ele>1998.57</ele>
        <time>2021-02-20T12:52:29.000Z</time>
      </trkpt>
      <trkpt lat="45.7473" lon="6.50659">
        <ele>1996.12</ele>
        <time>2021-02-20T12:53:07.000Z</time>
      </trkpt>
      <trkpt lat="45.74738" lon="6.50666">
        <ele>1996.17</ele>
        <time>2021-02-20T12:53:30.000Z</time>
      </trkpt>
      <trkpt lat="45.74746" lon="6.50674">
        <ele>1995.46</ele>
        <time>2021-02-20T12:53:43.000Z</time>
      </trkpt>
      <trkpt lat="45.74755" lon="6.50677">
        <ele>1994.58</ele>
        <time>2021-02-20T12:53:58.000Z</time>
      </trkpt>
      <trkpt lat="45.74764" lon="6.5068">
        <ele>1994.14</ele>
        <time>2021-02-20T12:54:14.000Z</time>
      </trkpt>
      <trkpt lat="45.74774" lon="6.50683">
        <ele>1991.6</ele>
        <time>2021-02-20T12:54:28.000Z</time>
      </trkpt>
      <trkpt lat="45.74784" lon="6.50684">
        <ele>1988.9</ele>
        <time>2021-02-20T12:54:41.000Z</time>
      </trkpt>
      <trkpt lat="45.74794" lon="6.50686">
        <ele>1988.69</ele>
        <time>2021-02-20T12:54:51.000Z</time>
      </trkpt>
      <trkpt lat="45.74797" lon="6.50699">
        <ele>1988.53</ele>
        <time>2021-02-20T12:54:59.000Z</time>
      </trkpt>
      <trkpt lat="45.74795" lon="6.50711">
        <ele>1988.26</ele>
        <time>2021-02-20T12:55:07.000Z</time>
      </trkpt>
      <trkpt lat="45.74798" lon="6.50724">
        <ele>1987.35</ele>
        <time>2021-02-20T12:56:17.000Z</time>
      </trkpt>
      <trkpt lat="45.74801" lon="6.50738">
        <ele>1986.78</ele>
        <time>2021-02-20T12:58:32.000Z</time>
      </trkpt>
      <trkpt lat="45.74806" lon="6.50749">
        <ele>1987.22</ele>
        <time>2021-02-20T12:58:42.000Z</time>
      </trkpt>
      <trkpt lat="45.74813" lon="6.50757">
        <ele>1985.88</ele>
        <time>2021-02-20T12:58:51.000Z</time>
      </trkpt>
      <trkpt lat="45.74822" lon="6.50764">
        <ele>1984.77</ele>
        <time>2021-02-20T12:59:01.000Z</time>
      </trkpt>
      <trkpt lat="45.74829" lon="6.50773">
        <ele>1983.82</ele>
        <time>2021-02-20T12:59:10.000Z</time>
      </trkpt>
      <trkpt lat="45.74835" lon="6.50784">
        <ele>1982.04</ele>
        <time>2021-02-20T12:59:24.000Z</time>
      </trkpt>
      <trkpt lat="45.74839" lon="6.50796">
        <ele>1980.62</ele>
        <time>2021-02-20T12:59:33.000Z</time>
      </trkpt>
      <trkpt lat="45.74844" lon="6.50808">
        <ele>1980.91</ele>
        <time>2021-02-20T12:59:43.000Z</time>
      </trkpt>
      <trkpt lat="45.74849" lon="6.50819">
        <ele>1978.7</ele>
        <time>2021-02-20T12:59:52.000Z</time>
      </trkpt>
      <trkpt lat="45.74855" lon="6.5083">
        <ele>1978.03</ele>
        <time>2021-02-20T13:00:01.000Z</time>
      </trkpt>
      <trkpt lat="45.74861" lon="6.5084">
        <ele>1976.59</ele>
        <time>2021-02-20T13:00:08.000Z</time>
      </trkpt>
      <trkpt lat="45.74867" lon="6.5085">
        <ele>1974.49</ele>
        <time>2021-02-20T13:00:18.000Z</time>
      </trkpt>
      <trkpt lat="45.74873" lon="6.50861">
        <ele>1970.89</ele>
        <time>2021-02-20T13:00:27.000Z</time>
      </trkpt>
      <trkpt lat="45.7488" lon="6.50871">
        <ele>1968.7</ele>
        <time>2021-02-20T13:00:34.000Z</time>
      </trkpt>
      <trkpt lat="45.74887" lon="6.50882">
        <ele>1966.24</ele>
        <time>2021-02-20T13:00:42.000Z</time>
      </trkpt>
      <trkpt lat="45.74894" lon="6.50892">
        <ele>1964.35</ele>
        <time>2021-02-20T13:00:49.000Z</time>
      </trkpt>
      <trkpt lat="45.74903" lon="6.509">
        <ele>1962.45</ele>
        <time>2021-02-20T13:00:56.000Z</time>
      </trkpt>
      <trkpt lat="45.7491" lon="6.50909">
        <ele>1959.69</ele>
        <time>2021-02-20T13:01:05.000Z</time>
      </trkpt>
      <trkpt lat="45.74918" lon="6.50915">
        <ele>1957.7</ele>
        <time>2021-02-20T13:01:13.000Z</time>
      </trkpt>
      <trkpt lat="45.74925" lon="6.50925">
        <ele>1956.05</ele>
        <time>2021-02-20T13:01:23.000Z</time>
      </trkpt>
      <trkpt lat="45.74934" lon="6.50931">
        <ele>1955.1</ele>
        <time>2021-02-20T13:01:33.000Z</time>
      </trkpt>
      <trkpt lat="45.7494" lon="6.50941">
        <ele>1953.99</ele>
        <time>2021-02-20T13:01:57.000Z</time>
      </trkpt>
      <trkpt lat="45.74948" lon="6.50948">
        <ele>1953.02</ele>
        <time>2021-02-20T13:02:10.000Z</time>
      </trkpt>
      <trkpt lat="45.74951" lon="6.50961">
        <ele>1952.72</ele>
        <time>2021-02-20T13:02:20.000Z</time>
      </trkpt>
      <trkpt lat="45.74954" lon="6.50974">
        <ele>1951.32</ele>
        <time>2021-02-20T13:02:31.000Z</time>
      </trkpt>
      <trkpt lat="45.74959" lon="6.50986">
        <ele>1949.01</ele>
        <time>2021-02-20T13:02:43.000Z</time>
      </trkpt>
      <trkpt lat="45.74966" lon="6.50994">
        <ele>1947.83</ele>
        <time>2021-02-20T13:02:53.000Z</time>
      </trkpt>
      <trkpt lat="45.74974" lon="6.51001">
        <ele>1945.89</ele>
        <time>2021-02-20T13:03:11.000Z</time>
      </trkpt>
      <trkpt lat="45.74981" lon="6.5101">
        <ele>1943.26</ele>
        <time>2021-02-20T13:03:54.999Z</time>
      </trkpt>
      <trkpt lat="45.74986" lon="6.5102">
        <ele>1941.31</ele>
        <time>2021-02-20T13:04:08.999Z</time>
      </trkpt>
      <trkpt lat="45.74992" lon="6.5103">
        <ele>1941.06</ele>
        <time>2021-02-20T13:04:30.999Z</time>
      </trkpt>
      <trkpt lat="45.74997" lon="6.51042">
        <ele>1940.34</ele>
        <time>2021-02-20T13:05:18.999Z</time>
      </trkpt>
      <trkpt lat="45.75003" lon="6.51052">
        <ele>1940.95</ele>
        <time>2021-02-20T13:06:05.999Z</time>
      </trkpt>
      <trkpt lat="45.75007" lon="6.51064">
        <ele>1942.41</ele>
        <time>2021-02-20T13:06:16.999Z</time>
      </trkpt>
      <trkpt lat="45.7501" lon="6.51078">
        <ele>1938.81</ele>
        <time>2021-02-20T13:06:29.999Z</time>
      </trkpt>
      <trkpt lat="45.75011" lon="6.51092">
        <ele>1937.31</ele>
        <time>2021-02-20T13:06:39.999Z</time>
      </trkpt>
      <trkpt lat="45.75016" lon="6.51103">
        <ele>1939.2</ele>
        <time>2021-02-20T13:06:47.999Z</time>
      </trkpt>
      <trkpt lat="45.7502" lon="6.51116">
        <ele>1937.52</ele>
        <time>2021-02-20T13:06:57.999Z</time>
      </trkpt>
      <trkpt lat="45.75024" lon="6.51128">
        <ele>1936.58</ele>
        <time>2021-02-20T13:07:07.999Z</time>
      </trkpt>
      <trkpt lat="45.75027" lon="6.5114">
        <ele>1936.08</ele>
        <time>2021-02-20T13:07:16.999Z</time>
      </trkpt>
      <trkpt lat="45.7503" lon="6.51153">
        <ele>1934.72</ele>
        <time>2021-02-20T13:07:41.999Z</time>
      </trkpt>
      <trkpt lat="45.75034" lon="6.51166">
        <ele>1931.37</ele>
        <time>2021-02-20T13:07:55.999Z</time>
      </trkpt>
      <trkpt lat="45.75036" lon="6.51179">
        <ele>1930.86</ele>
        <time>2021-02-20T13:08:05.999Z</time>
      </trkpt>
      <trkpt lat="45.75039" lon="6.51191">
        <ele>1928.75</ele>
        <time>2021-02-20T13:08:15.999Z</time>
      </trkpt>
      <trkpt lat="45.75044" lon="6.51203">
        <ele>1929.88</ele>
        <time>2021-02-20T13:08:24.999Z</time>
      </trkpt>
      <trkpt lat="45.7505" lon="6.51214">
        <ele>1929.1</ele>
        <time>2021-02-20T13:08:33.999Z</time>
      </trkpt>
      <trkpt lat="45.75054" lon="6.51226">
        <ele>1928.32</ele>
        <time>2021-02-20T13:08:41.999Z</time>
      </trkpt>
      <trkpt lat="45.75059" lon="6.51237">
        <ele>1927.01</ele>
        <time>2021-02-20T13:08:52.999Z</time>
      </trkpt>
      <trkpt lat="45.75062" lon="6.5125">
        <ele>1924.52</ele>
        <time>2021-02-20T13:09:11.999Z</time>
      </trkpt>
      <trkpt lat="45.75068" lon="6.5126">
        <ele>1923.47</ele>
        <time>2021-02-20T13:12:02.999Z</time>
      </trkpt>
      <trkpt lat="45.75072" lon="6.51272">
        <ele>1922.08</ele>
        <time>2021-02-20T13:12:19.999Z</time>
      </trkpt>
      <trkpt lat="45.75077" lon="6.51283">
        <ele>1922.3</ele>
        <time>2021-02-20T13:12:29.999Z</time>
      </trkpt>
      <trkpt lat="45.75082" lon="6.51294">
        <ele>1922.45</ele>
        <time>2021-02-20T13:12:40.999Z</time>
      </trkpt>
      <trkpt lat="45.75087" lon="6.51305">
        <ele>1921.68</ele>
        <time>2021-02-20T13:12:53.999Z</time>
      </trkpt>
      <trkpt lat="45.75092" lon="6.51316">
        <ele>1920.52</ele>
        <time>2021-02-20T13:13:06.999Z</time>
      </trkpt>
      <trkpt lat="45.75096" lon="6.51329">
        <ele>1917.57</ele>
        <time>2021-02-20T13:13:19.999Z</time>
      </trkpt>
      <trkpt lat="45.751" lon="6.5134">
        <ele>1915.58</ele>
        <time>2021-02-20T13:13:34.999Z</time>
      </trkpt>
      <trkpt lat="45.75103" lon="6.51354">
        <ele>1914.28</ele>
        <time>2021-02-20T13:13:55.999Z</time>
      </trkpt>
      <trkpt lat="45.75103" lon="6.51367">
        <ele>1912.86</ele>
        <time>2021-02-20T13:14:08.999Z</time>
      </trkpt>
      <trkpt lat="45.751" lon="6.5138">
        <ele>1911.82</ele>
        <time>2021-02-20T13:14:22.999Z</time>
      </trkpt>
      <trkpt lat="45.75094" lon="6.5139">
        <ele>1910.24</ele>
        <time>2021-02-20T13:14:45.999Z</time>
      </trkpt>
      <trkpt lat="45.75086" lon="6.51398">
        <ele>1909.89</ele>
        <time>2021-02-20T13:14:54.999Z</time>
      </trkpt>
      <trkpt lat="45.75079" lon="6.51408">
        <ele>1903.26</ele>
        <time>2021-02-20T13:19:24.000Z</time>
      </trkpt>
      <trkpt lat="45.75074" lon="6.51421">
        <ele>1902.83</ele>
        <time>2021-02-20T13:19:30.000Z</time>
      </trkpt>
      <trkpt lat="45.75067" lon="6.51429">
        <ele>1898.92</ele>
        <time>2021-02-20T13:19:37.000Z</time>
      </trkpt>
      <trkpt lat="45.7506" lon="6.51439">
        <ele>1898.68</ele>
        <time>2021-02-20T13:19:45.000Z</time>
      </trkpt>
      <trkpt lat="45.75058" lon="6.51452">
        <ele>1896.27</ele>
        <time>2021-02-20T13:19:56.000Z</time>
      </trkpt>
      <trkpt lat="45.75056" lon="6.51465">
        <ele>1892.43</ele>
        <time>2021-02-20T13:20:09.000Z</time>
      </trkpt>
      <trkpt lat="45.75055" lon="6.5148">
        <ele>1891.01</ele>
        <time>2021-02-20T13:20:54.000Z</time>
      </trkpt>
      <trkpt lat="45.7506" lon="6.51491">
        <ele>1886.66</ele>
        <time>2021-02-20T13:25:05.000Z</time>
      </trkpt>
      <trkpt lat="45.75065" lon="6.51502">
        <ele>1885.13</ele>
        <time>2021-02-20T13:26:57.999Z</time>
      </trkpt>
      <trkpt lat="45.7507" lon="6.51513">
        <ele>1882.67</ele>
        <time>2021-02-20T13:27:29.999Z</time>
      </trkpt>
      <trkpt lat="45.75076" lon="6.51524">
        <ele>1880.39</ele>
        <time>2021-02-20T13:28:01.999Z</time>
      </trkpt>
      <trkpt lat="45.75081" lon="6.51535">
        <ele>1878.21</ele>
        <time>2021-02-20T13:28:23.999Z</time>
      </trkpt>
      <trkpt lat="45.75086" lon="6.51545">
        <ele>1877.98</ele>
        <time>2021-02-20T13:28:40.999Z</time>
      </trkpt>
      <trkpt lat="45.75092" lon="6.51556">
        <ele>1876.33</ele>
        <time>2021-02-20T13:28:54.999Z</time>
      </trkpt>
      <trkpt lat="45.75099" lon="6.51566">
        <ele>1882.6</ele>
        <time>2021-02-20T13:29:07.999Z</time>
      </trkpt>
      <trkpt lat="45.75101" lon="6.51579">
        <ele>1879.66</ele>
        <time>2021-02-20T13:29:20.999Z</time>
      </trkpt>
      <trkpt lat="45.75102" lon="6.51592">
        <ele>1877.66</ele>
        <time>2021-02-20T13:29:33.999Z</time>
      </trkpt>
      <trkpt lat="45.75102" lon="6.51606">
        <ele>1876.26</ele>
        <time>2021-02-20T13:29:50.999Z</time>
      </trkpt>
      <trkpt lat="45.75103" lon="6.51619">
        <ele>1873.41</ele>
        <time>2021-02-20T13:30:03.999Z</time>
      </trkpt>
      <trkpt lat="45.75104" lon="6.51632">
        <ele>1869.79</ele>
        <time>2021-02-20T13:30:18.999Z</time>
      </trkpt>
      <trkpt lat="45.75108" lon="6.51644">
        <ele>1870.64</ele>
        <time>2021-02-20T13:30:29.999Z</time>
      </trkpt>
      <trkpt lat="45.7511" lon="6.51657">
        <ele>1869.3</ele>
        <time>2021-02-20T13:30:45.999Z</time>
      </trkpt>
      <trkpt lat="45.75111" lon="6.51669">
        <ele>1869.67</ele>
        <time>2021-02-20T13:31:00.999Z</time>
      </trkpt>
      <trkpt lat="45.75113" lon="6.51683">
        <ele>1865.6</ele>
        <time>2021-02-20T13:31:14.999Z</time>
      </trkpt>
      <trkpt lat="45.75119" lon="6.51694">
        <ele>1866.09</ele>
        <time>2021-02-20T13:31:28.999Z</time>
      </trkpt>
      <trkpt lat="45.75123" lon="6.51706">
        <ele>1865.49</ele>
        <time>2021-02-20T13:31:42.999Z</time>
      </trkpt>
      <trkpt lat="45.75125" lon="6.51719">
        <ele>1862.65</ele>
        <time>2021-02-20T13:32:02.999Z</time>
      </trkpt>
      <trkpt lat="45.75127" lon="6.51732">
        <ele>1861.95</ele>
        <time>2021-02-20T13:32:15.999Z</time>
      </trkpt>
      <trkpt lat="45.75132" lon="6.51743">
        <ele>1859.14</ele>
        <time>2021-02-20T13:33:08.999Z</time>
      </trkpt>
      <trkpt lat="45.75135" lon="6.51755">
        <ele>1857.5</ele>
        <time>2021-02-20T13:33:21.999Z</time>
      </trkpt>
      <trkpt lat="45.75138" lon="6.51768">
        <ele>1854.44</ele>
        <time>2021-02-20T13:33:34.999Z</time>
      </trkpt>
      <trkpt lat="45.75144" lon="6.51778">
        <ele>1852.89</ele>
        <time>2021-02-20T13:33:48.999Z</time>
      </trkpt>
      <trkpt lat="45.75148" lon="6.51791">
        <ele>1852.59</ele>
        <time>2021-02-20T13:33:59.999Z</time>
      </trkpt>
      <trkpt lat="45.75152" lon="6.51803">
        <ele>1851.91</ele>
        <time>2021-02-20T13:34:14.999Z</time>
      </trkpt>
      <trkpt lat="45.75156" lon="6.51816">
        <ele>1851.4</ele>
        <time>2021-02-20T13:34:27.999Z</time>
      </trkpt>
      <trkpt lat="45.75159" lon="6.51828">
        <ele>1849.28</ele>
        <time>2021-02-20T13:34:41.999Z</time>
      </trkpt>
      <trkpt lat="45.75165" lon="6.51839">
        <ele>1848.9</ele>
        <time>2021-02-20T13:36:49.999Z</time>
      </trkpt>
      <trkpt lat="45.75168" lon="6.51851">
        <ele>1847.22</ele>
        <time>2021-02-20T13:37:08.999Z</time>
      </trkpt>
      <trkpt lat="45.7517" lon="6.51864">
        <ele>1846.76</ele>
        <time>2021-02-20T13:38:08.999Z</time>
      </trkpt>
      <trkpt lat="45.75175" lon="6.51876">
        <ele>1846.87</ele>
        <time>2021-02-20T13:38:29.999Z</time>
      </trkpt>
      <trkpt lat="45.7518" lon="6.51887">
        <ele>1845.48</ele>
        <time>2021-02-20T13:38:41.999Z</time>
      </trkpt>
      <trkpt lat="45.75184" lon="6.51899">
        <ele>1842.35</ele>
        <time>2021-02-20T13:38:56.000Z</time>
      </trkpt>
      <trkpt lat="45.75188" lon="6.51911">
        <ele>1841.35</ele>
        <time>2021-02-20T13:39:10.000Z</time>
      </trkpt>
      <trkpt lat="45.75193" lon="6.51922">
        <ele>1840.95</ele>
        <time>2021-02-20T13:39:21.000Z</time>
      </trkpt>
      <trkpt lat="45.75197" lon="6.51935">
        <ele>1837.18</ele>
        <time>2021-02-20T13:39:33.000Z</time>
      </trkpt>
      <trkpt lat="45.75201" lon="6.51946">
        <ele>1836.05</ele>
        <time>2021-02-20T13:40:28.000Z</time>
      </trkpt>
      <trkpt lat="45.75201" lon="6.51961">
        <ele>1835.16</ele>
        <time>2021-02-20T13:40:39.000Z</time>
      </trkpt>
      <trkpt lat="45.75197" lon="6.51973">
        <ele>1833.54</ele>
        <time>2021-02-20T13:40:49.000Z</time>
      </trkpt>
      <trkpt lat="45.75191" lon="6.51983">
        <ele>1832</ele>
        <time>2021-02-20T13:41:11.000Z</time>
      </trkpt>
      <trkpt lat="45.75188" lon="6.51995">
        <ele>1831.51</ele>
        <time>2021-02-20T13:41:23.000Z</time>
      </trkpt>
      <trkpt lat="45.7519" lon="6.52009">
        <ele>1830.06</ele>
        <time>2021-02-20T13:41:33.000Z</time>
      </trkpt>
      <trkpt lat="45.75191" lon="6.52023">
        <ele>1830.34</ele>
        <time>2021-02-20T13:41:47.000Z</time>
      </trkpt>
      <trkpt lat="45.75192" lon="6.52037">
        <ele>1829.35</ele>
        <time>2021-02-20T13:42:02.000Z</time>
      </trkpt>
      <trkpt lat="45.75194" lon="6.52049">
        <ele>1826.41</ele>
        <time>2021-02-20T13:44:07.000Z</time>
      </trkpt>
      <trkpt lat="45.75197" lon="6.52062">
        <ele>1825.16</ele>
        <time>2021-02-20T13:44:53.000Z</time>
      </trkpt>
      <trkpt lat="45.75202" lon="6.52073">
        <ele>1825.46</ele>
        <time>2021-02-20T13:45:15.000Z</time>
      </trkpt>
      <trkpt lat="45.75207" lon="6.52084">
        <ele>1822.47</ele>
        <time>2021-02-20T13:45:30.000Z</time>
      </trkpt>
      <trkpt lat="45.75208" lon="6.52098">
        <ele>1819.05</ele>
        <time>2021-02-20T13:45:57.000Z</time>
      </trkpt>
      <trkpt lat="45.75205" lon="6.5211">
        <ele>1816.56</ele>
        <time>2021-02-20T13:46:15.000Z</time>
      </trkpt>
      <trkpt lat="45.75196" lon="6.52115">
        <ele>1815.38</ele>
        <time>2021-02-20T13:46:31.000Z</time>
      </trkpt>
      <trkpt lat="45.75191" lon="6.52126">
        <ele>1811.56</ele>
        <time>2021-02-20T13:47:17.000Z</time>
      </trkpt>
      <trkpt lat="45.7519" lon="6.5214">
        <ele>1809.28</ele>
        <time>2021-02-20T13:47:28.000Z</time>
      </trkpt>
      <trkpt lat="45.75189" lon="6.52153">
        <ele>1808.64</ele>
        <time>2021-02-20T13:47:38.000Z</time>
      </trkpt>
      <trkpt lat="45.75184" lon="6.52163">
        <ele>1807.45</ele>
        <time>2021-02-20T13:47:51.000Z</time>
      </trkpt>
      <trkpt lat="45.75191" lon="6.5217">
        <ele>1804.9</ele>
        <time>2021-02-20T13:48:51.000Z</time>
      </trkpt>
      <trkpt lat="45.75185" lon="6.5218">
        <ele>1804.54</ele>
        <time>2021-02-20T13:49:12.000Z</time>
      </trkpt>
      <trkpt lat="45.75181" lon="6.52193">
        <ele>1799.51</ele>
        <time>2021-02-20T13:53:14.999Z</time>
      </trkpt>
      <trkpt lat="45.75177" lon="6.52204">
        <ele>1801.97</ele>
        <time>2021-02-20T13:53:33.999Z</time>
      </trkpt>
      <trkpt lat="45.75183" lon="6.52215">
        <ele>1803.19</ele>
        <time>2021-02-20T13:53:43.999Z</time>
      </trkpt>
      <trkpt lat="45.75185" lon="6.52229">
        <ele>1802.38</ele>
        <time>2021-02-20T13:54:33.999Z</time>
      </trkpt>
      <trkpt lat="45.75186" lon="6.52242">
        <ele>1797.22</ele>
        <time>2021-02-20T13:54:46.999Z</time>
      </trkpt>
      <trkpt lat="45.75193" lon="6.52251">
        <ele>1797.7</ele>
        <time>2021-02-20T13:54:53.999Z</time>
      </trkpt>
      <trkpt lat="45.75196" lon="6.52263">
        <ele>1797.55</ele>
        <time>2021-02-20T13:55:03.999Z</time>
      </trkpt>
      <trkpt lat="45.752" lon="6.52275">
        <ele>1797.94</ele>
        <time>2021-02-20T13:55:14.999Z</time>
      </trkpt>
      <trkpt lat="45.75204" lon="6.52287">
        <ele>1797.89</ele>
        <time>2021-02-20T13:55:23.999Z</time>
      </trkpt>
      <trkpt lat="45.75205" lon="6.523">
        <ele>1797.07</ele>
        <time>2021-02-20T13:55:34.999Z</time>
      </trkpt>
      <trkpt lat="45.75209" lon="6.52313">
        <ele>1795.65</ele>
        <time>2021-02-20T13:55:44.999Z</time>
      </trkpt>
      <trkpt lat="45.75206" lon="6.52325">
        <ele>1794.73</ele>
        <time>2021-02-20T13:56:01.999Z</time>
      </trkpt>
      <trkpt lat="45.75211" lon="6.52336">
        <ele>1796.78</ele>
        <time>2021-02-20T13:56:13.999Z</time>
      </trkpt>
      <trkpt lat="45.75214" lon="6.52349">
        <ele>1795.48</ele>
        <time>2021-02-20T13:56:22.999Z</time>
      </trkpt>
      <trkpt lat="45.75215" lon="6.52362">
        <ele>1793.57</ele>
        <time>2021-02-20T13:56:33.999Z</time>
      </trkpt>
      <trkpt lat="45.75215" lon="6.52376">
        <ele>1791.84</ele>
        <time>2021-02-20T13:56:46.999Z</time>
      </trkpt>
      <trkpt lat="45.75216" lon="6.52389">
        <ele>1789.52</ele>
        <time>2021-02-20T13:57:06.999Z</time>
      </trkpt>
      <trkpt lat="45.75218" lon="6.52402">
        <ele>1788.1</ele>
        <time>2021-02-20T13:57:16.999Z</time>
      </trkpt>
      <trkpt lat="45.7522" lon="6.52415">
        <ele>1788.51</ele>
        <time>2021-02-20T13:57:27.999Z</time>
      </trkpt>
      <trkpt lat="45.75221" lon="6.52428">
        <ele>1785.74</ele>
        <time>2021-02-20T13:58:05.999Z</time>
      </trkpt>
      <trkpt lat="45.75222" lon="6.52442">
        <ele>1783.94</ele>
        <time>2021-02-20T14:01:08.999Z</time>
      </trkpt>
      <trkpt lat="45.75225" lon="6.52454">
        <ele>1786.51</ele>
        <time>2021-02-20T14:01:22.999Z</time>
      </trkpt>
      <trkpt lat="45.75223" lon="6.52468">
        <ele>1783.28</ele>
        <time>2021-02-20T14:01:55.999Z</time>
      </trkpt>
      <trkpt lat="45.75223" lon="6.52481">
        <ele>1782.37</ele>
        <time>2021-02-20T14:02:20.999Z</time>
      </trkpt>
      <trkpt lat="45.7522" lon="6.52493">
        <ele>1780.66</ele>
        <time>2021-02-20T14:02:50.999Z</time>
      </trkpt>
      <trkpt lat="45.75215" lon="6.52505">
        <ele>1778.67</ele>
        <time>2021-02-20T14:03:14.000Z</time>
      </trkpt>
      <trkpt lat="45.75209" lon="6.52516">
        <ele>1777.85</ele>
        <time>2021-02-20T14:03:25.000Z</time>
      </trkpt>
      <trkpt lat="45.75207" lon="6.52529">
        <ele>1777.82</ele>
        <time>2021-02-20T14:03:37.000Z</time>
      </trkpt>
      <trkpt lat="45.75205" lon="6.52542">
        <ele>1777.82</ele>
        <time>2021-02-20T14:03:50.000Z</time>
      </trkpt>
      <trkpt lat="45.75202" lon="6.52554">
        <ele>1775.32</ele>
        <time>2021-02-20T14:04:04.000Z</time>
      </trkpt>
      <trkpt lat="45.75197" lon="6.52566">
        <ele>1773.41</ele>
        <time>2021-02-20T14:04:20.000Z</time>
      </trkpt>
      <trkpt lat="45.75195" lon="6.5258">
        <ele>1771.27</ele>
        <time>2021-02-20T14:04:34.000Z</time>
      </trkpt>
      <trkpt lat="45.75192" lon="6.52593">
        <ele>1770.15</ele>
        <time>2021-02-20T14:04:55.000Z</time>
      </trkpt>
      <trkpt lat="45.75188" lon="6.52604">
        <ele>1768.14</ele>
        <time>2021-02-20T14:05:09.000Z</time>
      </trkpt>
      <trkpt lat="45.75187" lon="6.52618">
        <ele>1767.37</ele>
        <time>2021-02-20T14:05:39.000Z</time>
      </trkpt>
      <trkpt lat="45.75181" lon="6.52628">
        <ele>1765.28</ele>
        <time>2021-02-20T14:05:52.000Z</time>
      </trkpt>
      <trkpt lat="45.75175" lon="6.52638">
        <ele>1765.68</ele>
        <time>2021-02-20T14:06:13.000Z</time>
      </trkpt>
      <trkpt lat="45.75174" lon="6.52652">
        <ele>1763.13</ele>
        <time>2021-02-20T14:06:24.000Z</time>
      </trkpt>
      <trkpt lat="45.75172" lon="6.52665">
        <ele>1760.38</ele>
        <time>2021-02-20T14:06:39.000Z</time>
      </trkpt>
      <trkpt lat="45.75168" lon="6.52678">
        <ele>1758.76</ele>
        <time>2021-02-20T14:06:53.000Z</time>
      </trkpt>
      <trkpt lat="45.75167" lon="6.52691">
        <ele>1757.99</ele>
        <time>2021-02-20T14:07:06.000Z</time>
      </trkpt>
      <trkpt lat="45.75164" lon="6.52704">
        <ele>1757.83</ele>
        <time>2021-02-20T14:07:20.000Z</time>
      </trkpt>
      <trkpt lat="45.7516" lon="6.52716">
        <ele>1757.33</ele>
        <time>2021-02-20T14:07:34.000Z</time>
      </trkpt>
      <trkpt lat="45.7516" lon="6.5273">
        <ele>1756.24</ele>
        <time>2021-02-20T14:07:49.000Z</time>
      </trkpt>
      <trkpt lat="45.75158" lon="6.52743">
        <ele>1755.09</ele>
        <time>2021-02-20T14:08:04.000Z</time>
      </trkpt>
      <trkpt lat="45.75156" lon="6.52755">
        <ele>1754.78</ele>
        <time>2021-02-20T14:08:17.000Z</time>
      </trkpt>
      <trkpt lat="45.75152" lon="6.52767">
        <ele>1752.29</ele>
        <time>2021-02-20T14:08:32.000Z</time>
      </trkpt>
      <trkpt lat="45.75151" lon="6.5278">
        <ele>1751.58</ele>
        <time>2021-02-20T14:08:45.000Z</time>
      </trkpt>
      <trkpt lat="45.75151" lon="6.52794">
        <ele>1750.4</ele>
        <time>2021-02-20T14:08:58.000Z</time>
      </trkpt>
      <trkpt lat="45.75152" lon="6.52808">
        <ele>1748.73</ele>
        <time>2021-02-20T14:09:11.000Z</time>
      </trkpt>
      <trkpt lat="45.75149" lon="6.5282">
        <ele>1747.74</ele>
        <time>2021-02-20T14:09:24.000Z</time>
      </trkpt>
      <trkpt lat="45.75149" lon="6.52834">
        <ele>1746.14</ele>
        <time>2021-02-20T14:09:39.000Z</time>
      </trkpt>
      <trkpt lat="45.75147" lon="6.52847">
        <ele>1745.07</ele>
        <time>2021-02-20T14:09:56.000Z</time>
      </trkpt>
      <trkpt lat="45.75148" lon="6.52861">
        <ele>1745.36</ele>
        <time>2021-02-20T14:10:11.000Z</time>
      </trkpt>
      <trkpt lat="45.75148" lon="6.52874">
        <ele>1744.11</ele>
        <time>2021-02-20T14:10:23.000Z</time>
      </trkpt>
      <trkpt lat="45.75148" lon="6.52888">
        <ele>1741.7</ele>
        <time>2021-02-20T14:10:36.000Z</time>
      </trkpt>
      <trkpt lat="45.75147" lon="6.52901">
        <ele>1741.47</ele>
        <time>2021-02-20T14:10:51.000Z</time>
      </trkpt>
      <trkpt lat="45.75147" lon="6.52916">
        <ele>1738.99</ele>
        <time>2021-02-20T14:11:04.000Z</time>
      </trkpt>
      <trkpt lat="45.75147" lon="6.52929">
        <ele>1737.8</ele>
        <time>2021-02-20T14:11:20.000Z</time>
      </trkpt>
      <trkpt lat="45.75149" lon="6.52942">
        <ele>1737.58</ele>
        <time>2021-02-20T14:11:31.000Z</time>
      </trkpt>
      <trkpt lat="45.75146" lon="6.52956">
        <ele>1733.49</ele>
        <time>2021-02-20T14:11:45.000Z</time>
      </trkpt>
      <trkpt lat="45.75145" lon="6.52969">
        <ele>1733.88</ele>
        <time>2021-02-20T14:11:56.000Z</time>
      </trkpt>
      <trkpt lat="45.75143" lon="6.52982">
        <ele>1732.47</ele>
        <time>2021-02-20T14:12:09.000Z</time>
      </trkpt>
      <trkpt lat="45.7514" lon="6.52995">
        <ele>1731.32</ele>
        <time>2021-02-20T14:12:20.000Z</time>
      </trkpt>
      <trkpt lat="45.75139" lon="6.53008">
        <ele>1730.66</ele>
        <time>2021-02-20T14:12:33.000Z</time>
      </trkpt>
      <trkpt lat="45.75137" lon="6.53021">
        <ele>1729.52</ele>
        <time>2021-02-20T14:12:47.000Z</time>
      </trkpt>
      <trkpt lat="45.75138" lon="6.53035">
        <ele>1729.72</ele>
        <time>2021-02-20T14:12:59.000Z</time>
      </trkpt>
      <trkpt lat="45.75137" lon="6.53048">
        <ele>1728.96</ele>
        <time>2021-02-20T14:13:10.000Z</time>
      </trkpt>
      <trkpt lat="45.75135" lon="6.53061">
        <ele>1728.62</ele>
        <time>2021-02-20T14:13:23.000Z</time>
      </trkpt>
      <trkpt lat="45.75135" lon="6.53074">
        <ele>1727.37</ele>
        <time>2021-02-20T14:13:35.000Z</time>
      </trkpt>
      <trkpt lat="45.75135" lon="6.53088">
        <ele>1726.72</ele>
        <time>2021-02-20T14:13:47.000Z</time>
      </trkpt>
      <trkpt lat="45.75139" lon="6.531">
        <ele>1727.07</ele>
        <time>2021-02-20T14:13:57.000Z</time>
      </trkpt>
      <trkpt lat="45.75139" lon="6.53114">
        <ele>1725.05</ele>
        <time>2021-02-20T14:14:08.000Z</time>
      </trkpt>
      <trkpt lat="45.75142" lon="6.53126">
        <ele>1724.84</ele>
        <time>2021-02-20T14:14:19.000Z</time>
      </trkpt>
      <trkpt lat="45.75143" lon="6.53139">
        <ele>1723.45</ele>
        <time>2021-02-20T14:14:32.000Z</time>
      </trkpt>
      <trkpt lat="45.75146" lon="6.53155">
        <ele>1725.95</ele>
        <time>2021-02-20T14:15:25.000Z</time>
      </trkpt>
      <trkpt lat="45.75142" lon="6.53167">
        <ele>1724.89</ele>
        <time>2021-02-20T14:15:38.999Z</time>
      </trkpt>
      <trkpt lat="45.75139" lon="6.5318">
        <ele>1723.03</ele>
        <time>2021-02-20T14:15:51.999Z</time>
      </trkpt>
      <trkpt lat="45.75138" lon="6.53193">
        <ele>1721.98</ele>
        <time>2021-02-20T14:16:03.999Z</time>
      </trkpt>
      <trkpt lat="45.75138" lon="6.53207">
        <ele>1720.57</ele>
        <time>2021-02-20T14:16:15.999Z</time>
      </trkpt>
      <trkpt lat="45.75138" lon="6.53221">
        <ele>1719.67</ele>
        <time>2021-02-20T14:16:28.999Z</time>
      </trkpt>
      <trkpt lat="45.75137" lon="6.53233">
        <ele>1718.77</ele>
        <time>2021-02-20T14:16:39.999Z</time>
      </trkpt>
      <trkpt lat="45.75135" lon="6.53246">
        <ele>1718.66</ele>
        <time>2021-02-20T14:16:49.999Z</time>
      </trkpt>
      <trkpt lat="45.75133" lon="6.53259">
        <ele>1714.88</ele>
        <time>2021-02-20T14:16:59.999Z</time>
      </trkpt>
      <trkpt lat="45.75134" lon="6.53272">
        <ele>1714.06</ele>
        <time>2021-02-20T14:17:11.999Z</time>
      </trkpt>
      <trkpt lat="45.75136" lon="6.53285">
        <ele>1714.22</ele>
        <time>2021-02-20T14:17:25.999Z</time>
      </trkpt>
      <trkpt lat="45.75139" lon="6.53298">
        <ele>1715.08</ele>
        <time>2021-02-20T14:17:34.999Z</time>
      </trkpt>
      <trkpt lat="45.75138" lon="6.53311">
        <ele>1713.12</ele>
        <time>2021-02-20T14:17:49.999Z</time>
      </trkpt>
      <trkpt lat="45.75141" lon="6.53323">
        <ele>1711.28</ele>
        <time>2021-02-20T14:18:10.999Z</time>
      </trkpt>
      <trkpt lat="45.75135" lon="6.53335">
        <ele>1710.47</ele>
        <time>2021-02-20T14:18:27.999Z</time>
      </trkpt>
      <trkpt lat="45.75134" lon="6.53348">
        <ele>1709.29</ele>
        <time>2021-02-20T14:18:53.999Z</time>
      </trkpt>
      <trkpt lat="45.75131" lon="6.5336">
        <ele>1705.78</ele>
        <time>2021-02-20T14:19:15.999Z</time>
      </trkpt>
      <trkpt lat="45.75132" lon="6.53374">
        <ele>1704.83</ele>
        <time>2021-02-20T14:19:30.999Z</time>
      </trkpt>
      <trkpt lat="45.75133" lon="6.53387">
        <ele>1706.57</ele>
        <time>2021-02-20T14:19:42.999Z</time>
      </trkpt>
      <trkpt lat="45.75131" lon="6.534">
        <ele>1704.76</ele>
        <time>2021-02-20T14:19:54.999Z</time>
      </trkpt>
      <trkpt lat="45.75131" lon="6.53413">
        <ele>1703.26</ele>
        <time>2021-02-20T14:20:27.999Z</time>
      </trkpt>
      <trkpt lat="45.75132" lon="6.53426">
        <ele>1703.77</ele>
        <time>2021-02-20T14:20:40.999Z</time>
      </trkpt>
      <trkpt lat="45.7513" lon="6.5344">
        <ele>1702.81</ele>
        <time>2021-02-20T14:20:52.999Z</time>
      </trkpt>
      <trkpt lat="45.75132" lon="6.53453">
        <ele>1703.9</ele>
        <time>2021-02-20T14:21:04.999Z</time>
      </trkpt>
      <trkpt lat="45.75128" lon="6.53465">
        <ele>1703.39</ele>
        <time>2021-02-20T14:21:16.999Z</time>
      </trkpt>
      <trkpt lat="45.75125" lon="6.53478">
        <ele>1701.54</ele>
        <time>2021-02-20T14:21:30.999Z</time>
      </trkpt>
      <trkpt lat="45.7512" lon="6.53489">
        <ele>1701.93</ele>
        <time>2021-02-20T14:21:42.999Z</time>
      </trkpt>
      <trkpt lat="45.75116" lon="6.53501">
        <ele>1702.42</ele>
        <time>2021-02-20T14:21:56.999Z</time>
      </trkpt>
      <trkpt lat="45.75115" lon="6.53514">
        <ele>1702.54</ele>
        <time>2021-02-20T14:22:18.999Z</time>
      </trkpt>
      <trkpt lat="45.75114" lon="6.53527">
        <ele>1702.44</ele>
        <time>2021-02-20T14:22:31.999Z</time>
      </trkpt>
      <trkpt lat="45.75111" lon="6.53539">
        <ele>1702.04</ele>
        <time>2021-02-20T14:22:47.999Z</time>
      </trkpt>
      <trkpt lat="45.75109" lon="6.53551">
        <ele>1701.89</ele>
        <time>2021-02-20T14:22:59.999Z</time>
      </trkpt>
      <trkpt lat="45.75108" lon="6.53565">
        <ele>1701.78</ele>
        <time>2021-02-20T14:23:11.999Z</time>
      </trkpt>
      <trkpt lat="45.75107" lon="6.53579">
        <ele>1701.7</ele>
        <time>2021-02-20T14:23:30.999Z</time>
      </trkpt>
      <trkpt lat="45.75107" lon="6.53591">
        <ele>1699.61</ele>
        <time>2021-02-20T14:23:46.999Z</time>
      </trkpt>
      <trkpt lat="45.75116" lon="6.53593">
        <ele>1698.01</ele>
        <time>2021-02-20T14:24:11.999Z</time>
      </trkpt>
      <trkpt lat="45.75116" lon="6.53606">
        <ele>1695.65</ele>
        <time>2021-02-20T14:24:26.999Z</time>
      </trkpt>
      <trkpt lat="45.75118" lon="6.53619">
        <ele>1696.86</ele>
        <time>2021-02-20T14:24:38.999Z</time>
      </trkpt>
      <trkpt lat="45.75117" lon="6.53632">
        <ele>1692.15</ele>
        <time>2021-02-20T14:25:08.999Z</time>
      </trkpt>
      <trkpt lat="45.75114" lon="6.53644">
        <ele>1691.05</ele>
        <time>2021-02-20T14:25:20.999Z</time>
      </trkpt>
      <trkpt lat="45.75117" lon="6.53657">
        <ele>1689.47</ele>
        <time>2021-02-20T14:25:49.999Z</time>
      </trkpt>
      <trkpt lat="45.7512" lon="6.53669">
        <ele>1687.65</ele>
        <time>2021-02-20T14:26:05.999Z</time>
      </trkpt>
      <trkpt lat="45.75125" lon="6.5368">
        <ele>1684.83</ele>
        <time>2021-02-20T14:26:44.999Z</time>
      </trkpt>
      <trkpt lat="45.75128" lon="6.53692">
        <ele>1680.6</ele>
        <time>2021-02-20T14:27:01.999Z</time>
      </trkpt>
      <trkpt lat="45.75133" lon="6.53704">
        <ele>1677.06</ele>
        <time>2021-02-20T14:27:16.999Z</time>
      </trkpt>
      <trkpt lat="45.75133" lon="6.53717">
        <ele>1677.45</ele>
        <time>2021-02-20T14:27:30.999Z</time>
      </trkpt>
      <trkpt lat="45.75136" lon="6.5373">
        <ele>1676.73</ele>
        <time>2021-02-20T14:29:29.000Z</time>
      </trkpt>
      <trkpt lat="45.75135" lon="6.53743">
        <ele>1676.09</ele>
        <time>2021-02-20T14:29:55.000Z</time>
      </trkpt>
      <trkpt lat="45.75137" lon="6.53757">
        <ele>1674.09</ele>
        <time>2021-02-20T14:30:09.000Z</time>
      </trkpt>
      <trkpt lat="45.75137" lon="6.5377">
        <ele>1673.34</ele>
        <time>2021-02-20T14:30:29.000Z</time>
      </trkpt>
      <trkpt lat="45.75138" lon="6.53784">
        <ele>1673.07</ele>
        <time>2021-02-20T14:30:42.000Z</time>
      </trkpt>
      <trkpt lat="45.75139" lon="6.53798">
        <ele>1671.29</ele>
        <time>2021-02-20T14:30:55.000Z</time>
      </trkpt>
      <trkpt lat="45.75143" lon="6.53811">
        <ele>1670.9</ele>
        <time>2021-02-20T14:31:05.000Z</time>
      </trkpt>
      <trkpt lat="45.75145" lon="6.53824">
        <ele>1671.12</ele>
        <time>2021-02-20T14:31:15.000Z</time>
      </trkpt>
      <trkpt lat="45.75145" lon="6.53837">
        <ele>1670.91</ele>
        <time>2021-02-20T14:31:29.000Z</time>
      </trkpt>
      <trkpt lat="45.75147" lon="6.5385">
        <ele>1670.36</ele>
        <time>2021-02-20T14:32:44.000Z</time>
      </trkpt>
      <trkpt lat="45.75148" lon="6.53863">
        <ele>1671.05</ele>
        <time>2021-02-20T14:32:52.000Z</time>
      </trkpt>
      <trkpt lat="45.75152" lon="6.53875">
        <ele>1671.27</ele>
        <time>2021-02-20T14:33:03.000Z</time>
      </trkpt>
      <trkpt lat="45.75154" lon="6.53888">
        <ele>1669.67</ele>
        <time>2021-02-20T14:33:15.000Z</time>
      </trkpt>
      <trkpt lat="45.75156" lon="6.539">
        <ele>1667.43</ele>
        <time>2021-02-20T14:33:27.000Z</time>
      </trkpt>
      <trkpt lat="45.75158" lon="6.53913">
        <ele>1666.23</ele>
        <time>2021-02-20T14:33:37.000Z</time>
      </trkpt>
      <trkpt lat="45.75161" lon="6.53926">
        <ele>1665.55</ele>
        <time>2021-02-20T14:33:47.000Z</time>
      </trkpt>
      <trkpt lat="45.75161" lon="6.53939">
        <ele>1661.8</ele>
        <time>2021-02-20T14:34:47.000Z</time>
      </trkpt>
      <trkpt lat="45.75163" lon="6.53953">
        <ele>1661.3</ele>
        <time>2021-02-20T14:36:13.000Z</time>
      </trkpt>
      <trkpt lat="45.75167" lon="6.53964">
        <ele>1662.42</ele>
        <time>2021-02-20T14:36:27.000Z</time>
      </trkpt>
      <trkpt lat="45.75172" lon="6.53976">
        <ele>1660.18</ele>
        <time>2021-02-20T14:36:39.000Z</time>
      </trkpt>
      <trkpt lat="45.75178" lon="6.53987">
        <ele>1661.65</ele>
        <time>2021-02-20T14:36:50.000Z</time>
      </trkpt>
      <trkpt lat="45.7518" lon="6.54">
        <ele>1661.05</ele>
        <time>2021-02-20T14:37:17.000Z</time>
      </trkpt>
      <trkpt lat="45.75181" lon="6.54013">
        <ele>1658.62</ele>
        <time>2021-02-20T14:37:30.000Z</time>
      </trkpt>
      <trkpt lat="45.75183" lon="6.54026">
        <ele>1657.8</ele>
        <time>2021-02-20T14:37:46.000Z</time>
      </trkpt>
      <trkpt lat="45.75184" lon="6.54041">
        <ele>1654.86</ele>
        <time>2021-02-20T14:38:00.000Z</time>
      </trkpt>
      <trkpt lat="45.75184" lon="6.54054">
        <ele>1653.04</ele>
        <time>2021-02-20T14:38:12.000Z</time>
      </trkpt>
      <trkpt lat="45.75185" lon="6.54067">
        <ele>1650.52</ele>
        <time>2021-02-20T14:38:24.000Z</time>
      </trkpt>
      <trkpt lat="45.75186" lon="6.5408">
        <ele>1650.08</ele>
        <time>2021-02-20T14:38:33.000Z</time>
      </trkpt>
      <trkpt lat="45.75187" lon="6.54094">
        <ele>1649.68</ele>
        <time>2021-02-20T14:38:43.000Z</time>
      </trkpt>
      <trkpt lat="45.75188" lon="6.54107">
        <ele>1648.26</ele>
        <time>2021-02-20T14:38:54.000Z</time>
      </trkpt>
      <trkpt lat="45.7519" lon="6.54121">
        <ele>1647.79</ele>
        <time>2021-02-20T14:39:05.000Z</time>
      </trkpt>
      <trkpt lat="45.75193" lon="6.54134">
        <ele>1646.88</ele>
        <time>2021-02-20T14:39:15.000Z</time>
      </trkpt>
      <trkpt lat="45.75191" lon="6.54147">
        <ele>1644.24</ele>
        <time>2021-02-20T14:39:26.000Z</time>
      </trkpt>
      <trkpt lat="45.75195" lon="6.5416">
        <ele>1643.72</ele>
        <time>2021-02-20T14:39:37.000Z</time>
      </trkpt>
      <trkpt lat="45.752" lon="6.54171">
        <ele>1643.94</ele>
        <time>2021-02-20T14:39:45.999Z</time>
      </trkpt>
      <trkpt lat="45.75205" lon="6.54182">
        <ele>1642.25</ele>
        <time>2021-02-20T14:39:56.999Z</time>
      </trkpt>
      <trkpt lat="45.7521" lon="6.54194">
        <ele>1643.45</ele>
        <time>2021-02-20T14:40:11.999Z</time>
      </trkpt>
      <trkpt lat="45.75216" lon="6.54203">
        <ele>1642.08</ele>
        <time>2021-02-20T14:40:23.999Z</time>
      </trkpt>
      <trkpt lat="45.7522" lon="6.54215">
        <ele>1639.21</ele>
        <time>2021-02-20T14:40:34.999Z</time>
      </trkpt>
      <trkpt lat="45.75226" lon="6.54226">
        <ele>1638.4</ele>
        <time>2021-02-20T14:40:44.999Z</time>
      </trkpt>
      <trkpt lat="45.7523" lon="6.54238">
        <ele>1637.28</ele>
        <time>2021-02-20T14:40:55.999Z</time>
      </trkpt>
      <trkpt lat="45.75235" lon="6.5425">
        <ele>1637.64</ele>
        <time>2021-02-20T14:41:08.999Z</time>
      </trkpt>
      <trkpt lat="45.75238" lon="6.54262">
        <ele>1638.04</ele>
        <time>2021-02-20T14:41:20.999Z</time>
      </trkpt>
      <trkpt lat="45.75246" lon="6.54268">
        <ele>1638.56</ele>
        <time>2021-02-20T14:43:46.999Z</time>
      </trkpt>
      <trkpt lat="45.75254" lon="6.54277">
        <ele>1639.74</ele>
        <time>2021-02-20T14:44:03.999Z</time>
      </trkpt>
      <trkpt lat="45.75262" lon="6.54285">
        <ele>1639.7</ele>
        <time>2021-02-20T14:44:14.999Z</time>
      </trkpt>
      <trkpt lat="45.75264" lon="6.54298">
        <ele>1639.1</ele>
        <time>2021-02-20T14:44:27.999Z</time>
      </trkpt>
      <trkpt lat="45.75267" lon="6.54311">
        <ele>1640.82</ele>
        <time>2021-02-20T14:44:38.999Z</time>
      </trkpt>
      <trkpt lat="45.75264" lon="6.54324">
        <ele>1639.32</ele>
        <time>2021-02-20T14:44:49.999Z</time>
      </trkpt>
      <trkpt lat="45.75267" lon="6.54336">
        <ele>1638.76</ele>
        <time>2021-02-20T14:44:59.999Z</time>
      </trkpt>
      <trkpt lat="45.75274" lon="6.54345">
        <ele>1637.64</ele>
        <time>2021-02-20T14:45:17.999Z</time>
      </trkpt>
      <trkpt lat="45.75277" lon="6.54358">
        <ele>1637.22</ele>
        <time>2021-02-20T14:45:26.999Z</time>
      </trkpt>
      <trkpt lat="45.75286" lon="6.54365">
        <ele>1637.29</ele>
        <time>2021-02-20T14:45:38.999Z</time>
      </trkpt>
      <trkpt lat="45.75286" lon="6.54378">
        <ele>1637.58</ele>
        <time>2021-02-20T14:45:47.999Z</time>
      </trkpt>
      <trkpt lat="45.75288" lon="6.54392">
        <ele>1637.6</ele>
        <time>2021-02-20T14:46:01.999Z</time>
      </trkpt>
      <trkpt lat="45.7529" lon="6.54405">
        <ele>1638.46</ele>
        <time>2021-02-20T14:46:18.999Z</time>
      </trkpt>
    </trkseg>
  </trk>
</gpx>